<?xml version="1.0" encoding="UTF-8" standalone="no" ?>
<gpx xmlns="http://www.topografix.com/GPX/1/1" xmlns:xsi="http://www.w3.org/2001/XMLSchema-instance" xsi:schemaLocation="http://www.topografix.com/GPX/1/1 http://www.topografix.com/GPX/1/1/gpx.xsd" version="1.1" creator="VisuGPX - https://www.visugpx.com">
  <metadata>
    <name>Maroc2011 - De Zagora à Ourika</name>
    <desc><![CDATA[La trace de Zagora jusqu\'a la Vallée de L\'ourika]]></desc>
  </metadata>
  <trk>
    <name><![CDATA[Zagora Ourika]]></name>
    <trkseg>
      <trkpt lat="30.32231" lon="-5.83935">
        <ele>692.235</ele>
        <time>2011-04-26T08:00:35Z</time>
      </trkpt>
      <trkpt lat="30.32226" lon="-5.83937">
        <ele>748.239</ele>
        <time>2011-04-26T08:19:05Z</time>
      </trkpt>
      <trkpt lat="30.32192" lon="-5.84006">
        <ele>748.793</ele>
        <time>2011-04-26T08:19:13Z</time>
      </trkpt>
      <trkpt lat="30.32174" lon="-5.84">
        <ele>749.413</ele>
        <time>2011-04-26T08:19:27Z</time>
      </trkpt>
      <trkpt lat="30.32405" lon="-5.84021">
        <ele>761.787</ele>
        <time>2011-04-26T08:19:53Z</time>
      </trkpt>
      <trkpt lat="30.32848" lon="-5.83836">
        <ele>761.15</ele>
        <time>2011-04-26T08:26:42Z</time>
      </trkpt>
      <trkpt lat="30.33531" lon="-5.83716">
        <ele>757.577</ele>
        <time>2011-04-26T08:28:04Z</time>
      </trkpt>
      <trkpt lat="30.34399" lon="-5.83785">
        <ele>751.292</ele>
        <time>2011-04-26T08:29:20Z</time>
      </trkpt>
      <trkpt lat="30.35425" lon="-5.84035">
        <ele>752.816</ele>
        <time>2011-04-26T08:31:32Z</time>
      </trkpt>
      <trkpt lat="30.35843" lon="-5.84303">
        <ele>760.143</ele>
        <time>2011-04-26T08:32:21Z</time>
      </trkpt>
      <trkpt lat="30.36088" lon="-5.84325">
        <ele>761.184</ele>
        <time>2011-04-26T08:32:44Z</time>
      </trkpt>
      <trkpt lat="30.36823" lon="-5.84343">
        <ele>760.101</ele>
        <time>2011-04-26T08:33:41Z</time>
      </trkpt>
      <trkpt lat="30.37739" lon="-5.84523">
        <ele>763.767</ele>
        <time>2011-04-26T08:34:43Z</time>
      </trkpt>
      <trkpt lat="30.39455" lon="-5.85956">
        <ele>771.032</ele>
        <time>2011-04-26T08:36:54Z</time>
      </trkpt>
      <trkpt lat="30.39985" lon="-5.86486">
        <ele>798.142</ele>
        <time>2011-04-26T08:37:41Z</time>
      </trkpt>
      <trkpt lat="30.40111" lon="-5.86695">
        <ele>795.207</ele>
        <time>2011-04-26T08:37:54Z</time>
      </trkpt>
      <trkpt lat="30.406" lon="-5.86983">
        <ele>779.023</ele>
        <time>2011-04-26T08:38:29Z</time>
      </trkpt>
      <trkpt lat="30.41635" lon="-5.89316">
        <ele>775.098</ele>
        <time>2011-04-26T08:40:47Z</time>
      </trkpt>
      <trkpt lat="30.41836" lon="-5.9014">
        <ele>782.7</ele>
        <time>2011-04-26T08:41:31Z</time>
      </trkpt>
      <trkpt lat="30.42278" lon="-5.90937">
        <ele>775.784</ele>
        <time>2011-04-26T08:42:15Z</time>
      </trkpt>
      <trkpt lat="30.42497" lon="-5.92126">
        <ele>783.512</ele>
        <time>2011-04-26T08:43:08Z</time>
      </trkpt>
      <trkpt lat="30.43429" lon="-5.93223">
        <ele>782.897</ele>
        <time>2011-04-26T08:44:14Z</time>
      </trkpt>
      <trkpt lat="30.44171" lon="-5.94237">
        <ele>794.56</ele>
        <time>2011-04-26T08:45:09Z</time>
      </trkpt>
      <trkpt lat="30.44806" lon="-5.95033">
        <ele>795.851</ele>
        <time>2011-04-26T08:45:58Z</time>
      </trkpt>
      <trkpt lat="30.4521" lon="-5.95574">
        <ele>787.04</ele>
        <time>2011-04-26T08:46:31Z</time>
      </trkpt>
      <trkpt lat="30.4515" lon="-5.9624">
        <ele>786.318</ele>
        <time>2011-04-26T08:47:01Z</time>
      </trkpt>
      <trkpt lat="30.44739" lon="-5.96841">
        <ele>786.45</ele>
        <time>2011-04-26T08:47:37Z</time>
      </trkpt>
      <trkpt lat="30.44507" lon="-5.97342">
        <ele>783.88</ele>
        <time>2011-04-26T08:48:04Z</time>
      </trkpt>
      <trkpt lat="30.44451" lon="-5.97715">
        <ele>787.038</ele>
        <time>2011-04-26T08:48:24Z</time>
      </trkpt>
      <trkpt lat="30.44714" lon="-5.98908">
        <ele>793.921</ele>
        <time>2011-04-26T08:49:26Z</time>
      </trkpt>
      <trkpt lat="30.45504" lon="-6.00417">
        <ele>790.3</ele>
        <time>2011-04-26T08:51:07Z</time>
      </trkpt>
      <trkpt lat="30.45837" lon="-6.01509">
        <ele>805.785</ele>
        <time>2011-04-26T08:52:03Z</time>
      </trkpt>
      <trkpt lat="30.46019" lon="-6.02164">
        <ele>798.811</ele>
        <time>2011-04-26T08:52:34Z</time>
      </trkpt>
      <trkpt lat="30.46324" lon="-6.02459">
        <ele>802.845</ele>
        <time>2011-04-26T08:52:56Z</time>
      </trkpt>
      <trkpt lat="30.46672" lon="-6.02934">
        <ele>806.382</ele>
        <time>2011-04-26T08:53:24Z</time>
      </trkpt>
      <trkpt lat="30.46908" lon="-6.03075">
        <ele>803.614</ele>
        <time>2011-04-26T08:53:38Z</time>
      </trkpt>
      <trkpt lat="30.47497" lon="-6.03886">
        <ele>810.857</ele>
        <time>2011-04-26T08:54:24Z</time>
      </trkpt>
      <trkpt lat="30.47626" lon="-6.04019">
        <ele>808.204</ele>
        <time>2011-04-26T08:54:32Z</time>
      </trkpt>
      <trkpt lat="30.47845" lon="-6.05557">
        <ele>812.426</ele>
        <time>2011-04-26T08:55:36Z</time>
      </trkpt>
      <trkpt lat="30.47647" lon="-6.05842">
        <ele>812.047</ele>
        <time>2011-04-26T08:55:52Z</time>
      </trkpt>
      <trkpt lat="30.47436" lon="-6.06127">
        <ele>807.156</ele>
        <time>2011-04-26T08:56:08Z</time>
      </trkpt>
      <trkpt lat="30.4741" lon="-6.06363">
        <ele>811.702</ele>
        <time>2011-04-26T08:56:18Z</time>
      </trkpt>
      <trkpt lat="30.4742" lon="-6.06948">
        <ele>809.904</ele>
        <time>2011-04-26T08:56:47Z</time>
      </trkpt>
      <trkpt lat="30.47658" lon="-6.07455">
        <ele>815.263</ele>
        <time>2011-04-26T08:57:13Z</time>
      </trkpt>
      <trkpt lat="30.48267" lon="-6.08257">
        <ele>820.676</ele>
        <time>2011-04-26T08:57:55Z</time>
      </trkpt>
      <trkpt lat="30.48679" lon="-6.08534">
        <ele>816.188</ele>
        <time>2011-04-26T08:58:20Z</time>
      </trkpt>
      <trkpt lat="30.49474" lon="-6.09403">
        <ele>818.583</ele>
        <time>2011-04-26T08:59:12Z</time>
      </trkpt>
      <trkpt lat="30.49604" lon="-6.09542">
        <ele>815.172</ele>
        <time>2011-04-26T08:59:21Z</time>
      </trkpt>
      <trkpt lat="30.4986" lon="-6.10053">
        <ele>820.927</ele>
        <time>2011-04-26T08:59:50Z</time>
      </trkpt>
      <trkpt lat="30.50257" lon="-6.10247">
        <ele>819.776</ele>
        <time>2011-04-26T09:00:14Z</time>
      </trkpt>
      <trkpt lat="30.50643" lon="-6.10161">
        <ele>815.935</ele>
        <time>2011-04-26T09:00:43Z</time>
      </trkpt>
      <trkpt lat="30.51682" lon="-6.10359">
        <ele>820.856</ele>
        <time>2011-04-26T09:01:58Z</time>
      </trkpt>
      <trkpt lat="30.52473" lon="-6.10636">
        <ele>832.581</ele>
        <time>2011-04-26T09:02:41Z</time>
      </trkpt>
      <trkpt lat="30.52905" lon="-6.10798">
        <ele>821.897</ele>
        <time>2011-04-26T09:03:03Z</time>
      </trkpt>
      <trkpt lat="30.53867" lon="-6.11602">
        <ele>828.205</ele>
        <time>2011-04-26T09:04:04Z</time>
      </trkpt>
      <trkpt lat="30.54279" lon="-6.1209">
        <ele>827.486</ele>
        <time>2011-04-26T09:04:33Z</time>
      </trkpt>
      <trkpt lat="30.55542" lon="-6.12804">
        <ele>828.681</ele>
        <time>2011-04-26T09:05:43Z</time>
      </trkpt>
      <trkpt lat="30.56075" lon="-6.13269">
        <ele>832.886</ele>
        <time>2011-04-26T09:06:15Z</time>
      </trkpt>
      <trkpt lat="30.565" lon="-6.1385">
        <ele>841.667</ele>
        <time>2011-04-26T09:06:46Z</time>
      </trkpt>
      <trkpt lat="30.56937" lon="-6.14349">
        <ele>838.024</ele>
        <time>2011-04-26T09:07:14Z</time>
      </trkpt>
      <trkpt lat="30.57852" lon="-6.15045">
        <ele>853.4</ele>
        <time>2011-04-26T09:08:11Z</time>
      </trkpt>
      <trkpt lat="30.59069" lon="-6.15583">
        <ele>847.211</ele>
        <time>2011-04-26T09:09:23Z</time>
      </trkpt>
      <trkpt lat="30.59213" lon="-6.15742">
        <ele>842.992</ele>
        <time>2011-04-26T09:09:54Z</time>
      </trkpt>
      <trkpt lat="30.59309" lon="-6.16126">
        <ele>845.764</ele>
        <time>2011-04-26T09:10:14Z</time>
      </trkpt>
      <trkpt lat="30.59552" lon="-6.16479">
        <ele>848.545</ele>
        <time>2011-04-26T09:10:35Z</time>
      </trkpt>
      <trkpt lat="30.59712" lon="-6.16559">
        <ele>846.238</ele>
        <time>2011-04-26T09:12:03Z</time>
      </trkpt>
      <trkpt lat="30.60464" lon="-6.1673">
        <ele>849.302</ele>
        <time>2011-04-26T09:12:42Z</time>
      </trkpt>
      <trkpt lat="30.6258" lon="-6.16528">
        <ele>854.217</ele>
        <time>2011-04-26T09:19:10Z</time>
      </trkpt>
      <trkpt lat="30.64256" lon="-6.15254">
        <ele>858.516</ele>
        <time>2011-04-26T09:20:47Z</time>
      </trkpt>
      <trkpt lat="30.64646" lon="-6.1484">
        <ele>882.09</ele>
        <time>2011-04-26T09:21:11Z</time>
      </trkpt>
      <trkpt lat="30.65092" lon="-6.14498">
        <ele>870.162</ele>
        <time>2011-04-26T09:21:37Z</time>
      </trkpt>
      <trkpt lat="30.6603" lon="-6.14405">
        <ele>860.439</ele>
        <time>2011-04-26T09:22:31Z</time>
      </trkpt>
      <trkpt lat="30.6666" lon="-6.14192">
        <ele>858.77</ele>
        <time>2011-04-26T09:23:17Z</time>
      </trkpt>
      <trkpt lat="30.67198" lon="-6.14613">
        <ele>871.058</ele>
        <time>2011-04-26T09:25:07Z</time>
      </trkpt>
      <trkpt lat="30.6754" lon="-6.15407">
        <ele>893.154</ele>
        <time>2011-04-26T09:26:05Z</time>
      </trkpt>
      <trkpt lat="30.67503" lon="-6.15792">
        <ele>882.497</ele>
        <time>2011-04-26T09:26:35Z</time>
      </trkpt>
      <trkpt lat="30.67651" lon="-6.15867">
        <ele>882.246</ele>
        <time>2011-04-26T09:26:52Z</time>
      </trkpt>
      <trkpt lat="30.67698" lon="-6.16021">
        <ele>880.752</ele>
        <time>2011-04-26T09:27:04Z</time>
      </trkpt>
      <trkpt lat="30.67754" lon="-6.16431">
        <ele>869.322</ele>
        <time>2011-04-26T09:27:38Z</time>
      </trkpt>
      <trkpt lat="30.68097" lon="-6.16965">
        <ele>871.164</ele>
        <time>2011-04-26T09:28:06Z</time>
      </trkpt>
      <trkpt lat="30.6841" lon="-6.17659">
        <ele>871.651</ele>
        <time>2011-04-26T09:28:49Z</time>
      </trkpt>
      <trkpt lat="30.68447" lon="-6.19287">
        <ele>870.557</ele>
        <time>2011-04-26T09:30:29Z</time>
      </trkpt>
      <trkpt lat="30.68553" lon="-6.2033">
        <ele>873.469</ele>
        <time>2011-04-26T09:31:13Z</time>
      </trkpt>
      <trkpt lat="30.6872" lon="-6.2068">
        <ele>874.963</ele>
        <time>2011-04-26T09:31:34Z</time>
      </trkpt>
      <trkpt lat="30.68749" lon="-6.21206">
        <ele>884.949</ele>
        <time>2011-04-26T09:31:57Z</time>
      </trkpt>
      <trkpt lat="30.68891" lon="-6.21925">
        <ele>887.858</ele>
        <time>2011-04-26T09:32:27Z</time>
      </trkpt>
      <trkpt lat="30.68859" lon="-6.22753">
        <ele>914.926</ele>
        <time>2011-04-26T09:33:11Z</time>
      </trkpt>
      <trkpt lat="30.68904" lon="-6.22861">
        <ele>915.192</ele>
        <time>2011-04-26T09:33:20Z</time>
      </trkpt>
      <trkpt lat="30.68995" lon="-6.22858">
        <ele>912.62</ele>
        <time>2011-04-26T09:33:25Z</time>
      </trkpt>
      <trkpt lat="30.68936" lon="-6.23047">
        <ele>905.385</ele>
        <time>2011-04-26T09:33:39Z</time>
      </trkpt>
      <trkpt lat="30.68991" lon="-6.23487">
        <ele>893.361</ele>
        <time>2011-04-26T09:34:01Z</time>
      </trkpt>
      <trkpt lat="30.69485" lon="-6.23943">
        <ele>880.804</ele>
        <time>2011-04-26T09:34:40Z</time>
      </trkpt>
      <trkpt lat="30.6972" lon="-6.24766">
        <ele>894.347</ele>
        <time>2011-04-26T09:35:22Z</time>
      </trkpt>
      <trkpt lat="30.69388" lon="-6.25908">
        <ele>889.427</ele>
        <time>2011-04-26T09:36:20Z</time>
      </trkpt>
      <trkpt lat="30.69114" lon="-6.26176">
        <ele>896.893</ele>
        <time>2011-04-26T09:36:46Z</time>
      </trkpt>
      <trkpt lat="30.68926" lon="-6.26268">
        <ele>896.719</ele>
        <time>2011-04-26T09:36:58Z</time>
      </trkpt>
      <trkpt lat="30.68366" lon="-6.26898">
        <ele>895.317</ele>
        <time>2011-04-26T09:37:36Z</time>
      </trkpt>
      <trkpt lat="30.67878" lon="-6.27201">
        <ele>891.494</ele>
        <time>2011-04-26T09:38:03Z</time>
      </trkpt>
      <trkpt lat="30.675" lon="-6.27806">
        <ele>896.65</ele>
        <time>2011-04-26T09:38:38Z</time>
      </trkpt>
      <trkpt lat="30.67269" lon="-6.28423">
        <ele>900.575</ele>
        <time>2011-04-26T09:39:06Z</time>
      </trkpt>
      <trkpt lat="30.67467" lon="-6.29454">
        <ele>912.502</ele>
        <time>2011-04-26T09:39:53Z</time>
      </trkpt>
      <trkpt lat="30.67395" lon="-6.30003">
        <ele>927.544</ele>
        <time>2011-04-26T09:40:15Z</time>
      </trkpt>
      <trkpt lat="30.67246" lon="-6.30388">
        <ele>936.764</ele>
        <time>2011-04-26T09:40:31Z</time>
      </trkpt>
      <trkpt lat="30.66816" lon="-6.30996">
        <ele>954.96</ele>
        <time>2011-04-26T09:41:01Z</time>
      </trkpt>
      <trkpt lat="30.66597" lon="-6.31384">
        <ele>954.005</ele>
        <time>2011-04-26T09:41:26Z</time>
      </trkpt>
      <trkpt lat="30.66586" lon="-6.31971">
        <ele>977.247</ele>
        <time>2011-04-26T09:41:53Z</time>
      </trkpt>
      <trkpt lat="30.66572" lon="-6.32035">
        <ele>978.537</ele>
        <time>2011-04-26T09:41:56Z</time>
      </trkpt>
      <trkpt lat="30.66763" lon="-6.3267">
        <ele>954.524</ele>
        <time>2011-04-26T09:42:25Z</time>
      </trkpt>
      <trkpt lat="30.6707" lon="-6.32929">
        <ele>930.911</ele>
        <time>2011-04-26T09:42:47Z</time>
      </trkpt>
      <trkpt lat="30.67113" lon="-6.33029">
        <ele>921.586</ele>
        <time>2011-04-26T09:42:54Z</time>
      </trkpt>
      <trkpt lat="30.66955" lon="-6.3359">
        <ele>912.92</ele>
        <time>2011-04-26T09:43:29Z</time>
      </trkpt>
      <trkpt lat="30.6711" lon="-6.34616">
        <ele>913.176</ele>
        <time>2011-04-26T09:44:30Z</time>
      </trkpt>
      <trkpt lat="30.66979" lon="-6.34966">
        <ele>913.434</ele>
        <time>2011-04-26T09:44:55Z</time>
      </trkpt>
      <trkpt lat="30.67164" lon="-6.35375">
        <ele>914.556</ele>
        <time>2011-04-26T09:45:24Z</time>
      </trkpt>
      <trkpt lat="30.67207" lon="-6.3612">
        <ele>917.224</ele>
        <time>2011-04-26T09:46:04Z</time>
      </trkpt>
      <trkpt lat="30.67247" lon="-6.36448">
        <ele>917.964</ele>
        <time>2011-04-26T09:46:22Z</time>
      </trkpt>
      <trkpt lat="30.67156" lon="-6.37332">
        <ele>916.206</ele>
        <time>2011-04-26T09:47:06Z</time>
      </trkpt>
      <trkpt lat="30.66809" lon="-6.3789">
        <ele>919.458</ele>
        <time>2011-04-26T09:47:43Z</time>
      </trkpt>
      <trkpt lat="30.6679" lon="-6.38291">
        <ele>923.367</ele>
        <time>2011-04-26T09:48:02Z</time>
      </trkpt>
      <trkpt lat="30.66863" lon="-6.38843">
        <ele>919.975</ele>
        <time>2011-04-26T09:48:27Z</time>
      </trkpt>
      <trkpt lat="30.66818" lon="-6.39198">
        <ele>921.216</ele>
        <time>2011-04-26T09:48:45Z</time>
      </trkpt>
      <trkpt lat="30.6681" lon="-6.39272">
        <ele>919.447</ele>
        <time>2011-04-26T09:48:49Z</time>
      </trkpt>
      <trkpt lat="30.66985" lon="-6.40388">
        <ele>920.285</ele>
        <time>2011-04-26T09:49:49Z</time>
      </trkpt>
      <trkpt lat="30.67141" lon="-6.40548">
        <ele>926.26</ele>
        <time>2011-04-26T09:50:03Z</time>
      </trkpt>
      <trkpt lat="30.67491" lon="-6.40818">
        <ele>919.336</ele>
        <time>2011-04-26T09:50:31Z</time>
      </trkpt>
      <trkpt lat="30.67863" lon="-6.41477">
        <ele>928.397</ele>
        <time>2011-04-26T09:51:09Z</time>
      </trkpt>
      <trkpt lat="30.67921" lon="-6.4234">
        <ele>932.334</ele>
        <time>2011-04-26T09:51:44Z</time>
      </trkpt>
      <trkpt lat="30.68437" lon="-6.43488">
        <ele>937.696</ele>
        <time>2011-04-26T09:53:01Z</time>
      </trkpt>
      <trkpt lat="30.6863" lon="-6.44261">
        <ele>937.771</ele>
        <time>2011-04-26T09:53:50Z</time>
      </trkpt>
      <trkpt lat="30.68877" lon="-6.4456">
        <ele>940.207</ele>
        <time>2011-04-26T09:54:13Z</time>
      </trkpt>
      <trkpt lat="30.69327" lon="-6.44814">
        <ele>942.658</ele>
        <time>2011-04-26T09:54:57Z</time>
      </trkpt>
      <trkpt lat="30.69368" lon="-6.44855">
        <ele>941.409</ele>
        <time>2011-04-26T09:55:06Z</time>
      </trkpt>
      <trkpt lat="30.69362" lon="-6.45516">
        <ele>946.144</ele>
        <time>2011-04-26T09:55:56Z</time>
      </trkpt>
      <trkpt lat="30.70019" lon="-6.48002">
        <ele>988.977</ele>
        <time>2011-04-26T09:57:52Z</time>
      </trkpt>
      <trkpt lat="30.70145" lon="-6.48494">
        <ele>995.325</ele>
        <time>2011-04-26T09:58:11Z</time>
      </trkpt>
      <trkpt lat="30.71302" lon="-6.5028">
        <ele>1042.705</ele>
        <time>2011-04-26T09:59:35Z</time>
      </trkpt>
      <trkpt lat="30.71399" lon="-6.51206">
        <ele>1087.273</ele>
        <time>2011-04-26T10:00:12Z</time>
      </trkpt>
      <trkpt lat="30.71473" lon="-6.51865">
        <ele>1087.256</ele>
        <time>2011-04-26T10:00:37Z</time>
      </trkpt>
      <trkpt lat="30.71555" lon="-6.52261">
        <ele>1093.433</ele>
        <time>2011-04-26T10:00:54Z</time>
      </trkpt>
      <trkpt lat="30.71616" lon="-6.53537">
        <ele>1133.934</ele>
        <time>2011-04-26T10:02:10Z</time>
      </trkpt>
      <trkpt lat="30.71754" lon="-6.53667">
        <ele>1139.31</ele>
        <time>2011-04-26T10:02:21Z</time>
      </trkpt>
      <trkpt lat="30.7214" lon="-6.53741">
        <ele>1156.375</ele>
        <time>2011-04-26T10:02:44Z</time>
      </trkpt>
      <trkpt lat="30.72158" lon="-6.53738">
        <ele>1156.379</ele>
        <time>2011-04-26T10:02:45Z</time>
      </trkpt>
      <trkpt lat="30.72515" lon="-6.53169">
        <ele>1195.205</ele>
        <time>2011-04-26T10:03:27Z</time>
      </trkpt>
      <trkpt lat="30.72725" lon="-6.53235">
        <ele>1210.115</ele>
        <time>2011-04-26T10:03:45Z</time>
      </trkpt>
      <trkpt lat="30.72624" lon="-6.5339">
        <ele>1226.113</ele>
        <time>2011-04-26T10:03:56Z</time>
      </trkpt>
      <trkpt lat="30.72479" lon="-6.54092">
        <ele>1279.656</ele>
        <time>2011-04-26T10:04:49Z</time>
      </trkpt>
      <trkpt lat="30.7255" lon="-6.55377">
        <ele>1360.829</ele>
        <time>2011-04-26T10:06:12Z</time>
      </trkpt>
      <trkpt lat="30.72537" lon="-6.55615">
        <ele>1371.464</ele>
        <time>2011-04-26T10:06:26Z</time>
      </trkpt>
      <trkpt lat="30.72432" lon="-6.5567">
        <ele>1381.188</ele>
        <time>2011-04-26T10:06:40Z</time>
      </trkpt>
      <trkpt lat="30.72433" lon="-6.5575">
        <ele>1388.371</ele>
        <time>2011-04-26T10:06:44Z</time>
      </trkpt>
      <trkpt lat="30.72377" lon="-6.56254">
        <ele>1402.134</ele>
        <time>2011-04-26T10:08:37Z</time>
      </trkpt>
      <trkpt lat="30.71818" lon="-6.56796">
        <ele>1441.607</ele>
        <time>2011-04-26T10:10:19Z</time>
      </trkpt>
      <trkpt lat="30.71576" lon="-6.56918">
        <ele>1462.698</ele>
        <time>2011-04-26T10:10:37Z</time>
      </trkpt>
      <trkpt lat="30.71536" lon="-6.56952">
        <ele>1464.95</ele>
        <time>2011-04-26T10:10:40Z</time>
      </trkpt>
      <trkpt lat="30.71048" lon="-6.57931">
        <ele>1534.917</ele>
        <time>2011-04-26T10:24:15Z</time>
      </trkpt>
      <trkpt lat="30.71159" lon="-6.58045">
        <ele>1539.075</ele>
        <time>2011-04-26T10:24:33Z</time>
      </trkpt>
      <trkpt lat="30.71138" lon="-6.58171">
        <ele>1545.272</ele>
        <time>2011-04-26T10:24:44Z</time>
      </trkpt>
      <trkpt lat="30.70812" lon="-6.58301">
        <ele>1572.019</ele>
        <time>2011-04-26T10:25:14Z</time>
      </trkpt>
      <trkpt lat="30.70773" lon="-6.58342">
        <ele>1574.524</ele>
        <time>2011-04-26T10:25:20Z</time>
      </trkpt>
      <trkpt lat="30.70952" lon="-6.5844">
        <ele>1590.62</ele>
        <time>2011-04-26T10:25:44Z</time>
      </trkpt>
      <trkpt lat="30.70891" lon="-6.58622">
        <ele>1603.794</ele>
        <time>2011-04-26T10:25:56Z</time>
      </trkpt>
      <trkpt lat="30.71035" lon="-6.58847">
        <ele>1621.991</ele>
        <time>2011-04-26T10:26:18Z</time>
      </trkpt>
      <trkpt lat="30.70768" lon="-6.59203">
        <ele>1632.746</ele>
        <time>2011-04-26T10:26:51Z</time>
      </trkpt>
      <trkpt lat="30.70585" lon="-6.59188">
        <ele>1642.216</ele>
        <time>2011-04-26T10:27:05Z</time>
      </trkpt>
      <trkpt lat="30.70499" lon="-6.59239">
        <ele>1638.952</ele>
        <time>2011-04-26T10:27:16Z</time>
      </trkpt>
      <trkpt lat="30.70736" lon="-6.59375">
        <ele>1646.807</ele>
        <time>2011-04-26T10:27:39Z</time>
      </trkpt>
      <trkpt lat="30.70701" lon="-6.59557">
        <ele>1634.87</ele>
        <time>2011-04-26T10:27:56Z</time>
      </trkpt>
      <trkpt lat="30.70796" lon="-6.59559">
        <ele>1634.075</ele>
        <time>2011-04-26T10:28:01Z</time>
      </trkpt>
      <trkpt lat="30.71145" lon="-6.5921">
        <ele>1638.931</ele>
        <time>2011-04-26T10:28:33Z</time>
      </trkpt>
      <trkpt lat="30.71231" lon="-6.59701">
        <ele>1652.976</ele>
        <time>2011-04-26T10:29:03Z</time>
      </trkpt>
      <trkpt lat="30.71273" lon="-6.59815">
        <ele>1650.473</ele>
        <time>2011-04-26T10:29:16Z</time>
      </trkpt>
      <trkpt lat="30.71309" lon="-6.59663">
        <ele>1659.711</ele>
        <time>2011-04-26T10:29:26Z</time>
      </trkpt>
      <trkpt lat="30.71357" lon="-6.59456">
        <ele>1658.708</ele>
        <time>2011-04-26T10:29:38Z</time>
      </trkpt>
      <trkpt lat="30.71562" lon="-6.59334">
        <ele>1659.677</ele>
        <time>2011-04-26T10:29:57Z</time>
      </trkpt>
      <trkpt lat="30.71702" lon="-6.59623">
        <ele>1667.172</ele>
        <time>2011-04-26T10:30:15Z</time>
      </trkpt>
      <trkpt lat="30.71762" lon="-6.59945">
        <ele>1665.001</ele>
        <time>2011-04-26T10:30:32Z</time>
      </trkpt>
      <trkpt lat="30.71838" lon="-6.59939">
        <ele>1666.65</ele>
        <time>2011-04-26T10:30:43Z</time>
      </trkpt>
      <trkpt lat="30.71942" lon="-6.59978">
        <ele>1661.442</ele>
        <time>2011-04-26T10:30:53Z</time>
      </trkpt>
      <trkpt lat="30.71999" lon="-6.60267">
        <ele>1650.405</ele>
        <time>2011-04-26T10:31:16Z</time>
      </trkpt>
      <trkpt lat="30.72381" lon="-6.60365">
        <ele>1667.34</ele>
        <time>2011-04-26T10:31:54Z</time>
      </trkpt>
      <trkpt lat="30.72596" lon="-6.60647">
        <ele>1691.509</ele>
        <time>2011-04-26T10:32:23Z</time>
      </trkpt>
      <trkpt lat="30.72625" lon="-6.60751">
        <ele>1693.507</ele>
        <time>2011-04-26T10:32:32Z</time>
      </trkpt>
      <trkpt lat="30.72364" lon="-6.60976">
        <ele>1688.523</ele>
        <time>2011-04-26T10:33:35Z</time>
      </trkpt>
      <trkpt lat="30.72114" lon="-6.61574">
        <ele>1641.413</ele>
        <time>2011-04-26T10:34:20Z</time>
      </trkpt>
      <trkpt lat="30.72035" lon="-6.616">
        <ele>1637.678</ele>
        <time>2011-04-26T10:34:32Z</time>
      </trkpt>
      <trkpt lat="30.72088" lon="-6.61827">
        <ele>1627.277</ele>
        <time>2011-04-26T10:34:55Z</time>
      </trkpt>
      <trkpt lat="30.71813" lon="-6.62069">
        <ele>1618.345</ele>
        <time>2011-04-26T10:35:20Z</time>
      </trkpt>
      <trkpt lat="30.71771" lon="-6.62128">
        <ele>1601.211</ele>
        <time>2011-04-26T10:35:26Z</time>
      </trkpt>
      <trkpt lat="30.72219" lon="-6.61997">
        <ele>1569.586</ele>
        <time>2011-04-26T10:35:57Z</time>
      </trkpt>
      <trkpt lat="30.73043" lon="-6.62445">
        <ele>1513.083</ele>
        <time>2011-04-26T10:36:44Z</time>
      </trkpt>
      <trkpt lat="30.73325" lon="-6.63581">
        <ele>1519.137</ele>
        <time>2011-04-26T10:37:47Z</time>
      </trkpt>
      <trkpt lat="30.73438" lon="-6.63709">
        <ele>1522.869</ele>
        <time>2011-04-26T10:37:55Z</time>
      </trkpt>
      <trkpt lat="30.73714" lon="-6.63974">
        <ele>1510.165</ele>
        <time>2011-04-26T10:38:13Z</time>
      </trkpt>
      <trkpt lat="30.73887" lon="-6.64614">
        <ele>1495.773</ele>
        <time>2011-04-26T10:38:42Z</time>
      </trkpt>
      <trkpt lat="30.73898" lon="-6.64663">
        <ele>1493.734</ele>
        <time>2011-04-26T10:38:44Z</time>
      </trkpt>
      <trkpt lat="30.7388" lon="-6.64911">
        <ele>1493.528</ele>
        <time>2011-04-26T10:38:56Z</time>
      </trkpt>
      <trkpt lat="30.7375" lon="-6.65164">
        <ele>1490.214</ele>
        <time>2011-04-26T10:39:08Z</time>
      </trkpt>
      <trkpt lat="30.73656" lon="-6.65402">
        <ele>1477.475</ele>
        <time>2011-04-26T10:39:19Z</time>
      </trkpt>
      <trkpt lat="30.73597" lon="-6.66289">
        <ele>1488.297</ele>
        <time>2011-04-26T10:39:54Z</time>
      </trkpt>
      <trkpt lat="30.73597" lon="-6.66355">
        <ele>1485.947</ele>
        <time>2011-04-26T10:39:57Z</time>
      </trkpt>
      <trkpt lat="30.74353" lon="-6.67204">
        <ele>1505.136</ele>
        <time>2011-04-26T10:40:45Z</time>
      </trkpt>
      <trkpt lat="30.74964" lon="-6.67341">
        <ele>1531.745</ele>
        <time>2011-04-26T10:41:21Z</time>
      </trkpt>
      <trkpt lat="30.7504" lon="-6.67561">
        <ele>1543.873</ele>
        <time>2011-04-26T10:41:32Z</time>
      </trkpt>
      <trkpt lat="30.74953" lon="-6.67827">
        <ele>1560.447</ele>
        <time>2011-04-26T10:41:44Z</time>
      </trkpt>
      <trkpt lat="30.74847" lon="-6.68623">
        <ele>1592.564</ele>
        <time>2011-04-26T10:42:15Z</time>
      </trkpt>
      <trkpt lat="30.74806" lon="-6.68979">
        <ele>1574.818</ele>
        <time>2011-04-26T10:42:36Z</time>
      </trkpt>
      <trkpt lat="30.7547" lon="-6.69021">
        <ele>1546.865</ele>
        <time>2011-04-26T10:43:17Z</time>
      </trkpt>
      <trkpt lat="30.75576" lon="-6.68935">
        <ele>1533.197</ele>
        <time>2011-04-26T10:43:29Z</time>
      </trkpt>
      <trkpt lat="30.75792" lon="-6.69067">
        <ele>1523.34</ele>
        <time>2011-04-26T10:43:45Z</time>
      </trkpt>
      <trkpt lat="30.75938" lon="-6.68968">
        <ele>1510.566</ele>
        <time>2011-04-26T10:43:59Z</time>
      </trkpt>
      <trkpt lat="30.7602" lon="-6.69176">
        <ele>1503.684</ele>
        <time>2011-04-26T10:44:12Z</time>
      </trkpt>
      <trkpt lat="30.76135" lon="-6.69245">
        <ele>1500.865</ele>
        <time>2011-04-26T10:44:20Z</time>
      </trkpt>
      <trkpt lat="30.77431" lon="-6.68416">
        <ele>1455.261</ele>
        <time>2011-04-26T10:45:29Z</time>
      </trkpt>
      <trkpt lat="30.78053" lon="-6.68947">
        <ele>1467.921</ele>
        <time>2011-04-26T10:46:02Z</time>
      </trkpt>
      <trkpt lat="30.78352" lon="-6.69256">
        <ele>1444.515</ele>
        <time>2011-04-26T10:46:18Z</time>
      </trkpt>
      <trkpt lat="30.78586" lon="-6.69769">
        <ele>1423.021</ele>
        <time>2011-04-26T10:46:38Z</time>
      </trkpt>
      <trkpt lat="30.78968" lon="-6.71072">
        <ele>1406.567</ele>
        <time>2011-04-26T10:47:25Z</time>
      </trkpt>
      <trkpt lat="30.79029" lon="-6.71313">
        <ele>1390.468</ele>
        <time>2011-04-26T10:47:34Z</time>
      </trkpt>
      <trkpt lat="30.78886" lon="-6.71863">
        <ele>1384.225</ele>
        <time>2011-04-26T10:47:58Z</time>
      </trkpt>
      <trkpt lat="30.79697" lon="-6.72548">
        <ele>1352.345</ele>
        <time>2011-04-26T10:48:41Z</time>
      </trkpt>
      <trkpt lat="30.79933" lon="-6.73872">
        <ele>1347.221</ele>
        <time>2011-04-26T10:49:32Z</time>
      </trkpt>
      <trkpt lat="30.79907" lon="-6.74631">
        <ele>1354.183</ele>
        <time>2011-04-26T10:50:03Z</time>
      </trkpt>
      <trkpt lat="30.80369" lon="-6.74907">
        <ele>1343.397</ele>
        <time>2011-04-26T10:50:25Z</time>
      </trkpt>
      <trkpt lat="30.80735" lon="-6.75268">
        <ele>1338.848</ele>
        <time>2011-04-26T10:50:44Z</time>
      </trkpt>
      <trkpt lat="30.80995" lon="-6.75632">
        <ele>1358.017</ele>
        <time>2011-04-26T10:51:00Z</time>
      </trkpt>
      <trkpt lat="30.81214" lon="-6.75918">
        <ele>1344.336</ele>
        <time>2011-04-26T10:51:14Z</time>
      </trkpt>
      <trkpt lat="30.81571" lon="-6.76116">
        <ele>1324.254</ele>
        <time>2011-04-26T10:51:33Z</time>
      </trkpt>
      <trkpt lat="30.81804" lon="-6.76645">
        <ele>1296.665</ele>
        <time>2011-04-26T10:51:56Z</time>
      </trkpt>
      <trkpt lat="30.82404" lon="-6.77172">
        <ele>1264.33</ele>
        <time>2011-04-26T10:52:28Z</time>
      </trkpt>
      <trkpt lat="30.82714" lon="-6.77865">
        <ele>1253.606</ele>
        <time>2011-04-26T10:53:03Z</time>
      </trkpt>
      <trkpt lat="30.8312" lon="-6.78431">
        <ele>1239.805</ele>
        <time>2011-04-26T10:53:33Z</time>
      </trkpt>
      <trkpt lat="30.83397" lon="-6.78642">
        <ele>1242.607</ele>
        <time>2011-04-26T10:53:47Z</time>
      </trkpt>
      <trkpt lat="30.83555" lon="-6.78847">
        <ele>1236.975</ele>
        <time>2011-04-26T10:53:56Z</time>
      </trkpt>
      <trkpt lat="30.84325" lon="-6.80922">
        <ele>1221.545</ele>
        <time>2011-04-26T10:55:13Z</time>
      </trkpt>
      <trkpt lat="30.84359" lon="-6.81358">
        <ele>1196.387</ele>
        <time>2011-04-26T10:55:30Z</time>
      </trkpt>
      <trkpt lat="30.8484" lon="-6.8194">
        <ele>1186.413</ele>
        <time>2011-04-26T10:56:02Z</time>
      </trkpt>
      <trkpt lat="30.84909" lon="-6.82191">
        <ele>1197.184</ele>
        <time>2011-04-26T10:56:13Z</time>
      </trkpt>
      <trkpt lat="30.84964" lon="-6.8245">
        <ele>1181.88</ele>
        <time>2011-04-26T10:56:23Z</time>
      </trkpt>
      <trkpt lat="30.85176" lon="-6.82806">
        <ele>1169.789</ele>
        <time>2011-04-26T10:56:41Z</time>
      </trkpt>
      <trkpt lat="30.85223" lon="-6.8321">
        <ele>1159.534</ele>
        <time>2011-04-26T10:57:00Z</time>
      </trkpt>
      <trkpt lat="30.85669" lon="-6.83716">
        <ele>1153.406</ele>
        <time>2011-04-26T10:57:27Z</time>
      </trkpt>
      <trkpt lat="30.86127" lon="-6.83986">
        <ele>1158.6</ele>
        <time>2011-04-26T10:57:48Z</time>
      </trkpt>
      <trkpt lat="30.8617" lon="-6.84081">
        <ele>1160.569</ele>
        <time>2011-04-26T10:57:54Z</time>
      </trkpt>
      <trkpt lat="30.86173" lon="-6.84693">
        <ele>1152.659</ele>
        <time>2011-04-26T10:58:23Z</time>
      </trkpt>
      <trkpt lat="30.86359" lon="-6.85068">
        <ele>1155.47</ele>
        <time>2011-04-26T10:58:42Z</time>
      </trkpt>
      <trkpt lat="30.86493" lon="-6.8575">
        <ele>1164.615</ele>
        <time>2011-04-26T10:59:09Z</time>
      </trkpt>
      <trkpt lat="30.8646" lon="-6.86024">
        <ele>1153.867</ele>
        <time>2011-04-26T10:59:25Z</time>
      </trkpt>
      <trkpt lat="30.8667" lon="-6.86564">
        <ele>1150.54</ele>
        <time>2011-04-26T10:59:50Z</time>
      </trkpt>
      <trkpt lat="30.86656" lon="-6.86871">
        <ele>1159.267</ele>
        <time>2011-04-26T11:00:05Z</time>
      </trkpt>
      <trkpt lat="30.86713" lon="-6.87096">
        <ele>1160.68</ele>
        <time>2011-04-26T11:00:15Z</time>
      </trkpt>
      <trkpt lat="30.87469" lon="-6.88391">
        <ele>1179.996</ele>
        <time>2011-04-26T11:01:14Z</time>
      </trkpt>
      <trkpt lat="30.88066" lon="-6.88733">
        <ele>1212.184</ele>
        <time>2011-04-26T11:01:48Z</time>
      </trkpt>
      <trkpt lat="30.88163" lon="-6.88805">
        <ele>1212.823</ele>
        <time>2011-04-26T11:01:54Z</time>
      </trkpt>
      <trkpt lat="30.88392" lon="-6.89099">
        <ele>1195.297</ele>
        <time>2011-04-26T11:02:14Z</time>
      </trkpt>
      <trkpt lat="30.8864" lon="-6.89176">
        <ele>1187.651</ele>
        <time>2011-04-26T11:02:26Z</time>
      </trkpt>
      <trkpt lat="30.89366" lon="-6.8975">
        <ele>1167.714</ele>
        <time>2011-04-26T11:03:05Z</time>
      </trkpt>
      <trkpt lat="30.89629" lon="-6.90112">
        <ele>1148.924</ele>
        <time>2011-04-26T11:03:34Z</time>
      </trkpt>
      <trkpt lat="30.91342" lon="-6.95238">
        <ele>1159.886</ele>
        <time>2011-04-26T11:09:37Z</time>
      </trkpt>
      <trkpt lat="30.91552" lon="-6.96227">
        <ele>1160.993</ele>
        <time>2011-04-26T11:10:27Z</time>
      </trkpt>
      <trkpt lat="30.92083" lon="-6.96898">
        <ele>1161.316</ele>
        <time>2011-04-26T11:11:21Z</time>
      </trkpt>
      <trkpt lat="30.92274" lon="-6.97026">
        <ele>1160.379</ele>
        <time>2011-04-26T11:11:36Z</time>
      </trkpt>
      <trkpt lat="30.92075" lon="-6.98258">
        <ele>1169.728</ele>
        <time>2011-04-26T11:12:46Z</time>
      </trkpt>
      <trkpt lat="30.92139" lon="-6.98563">
        <ele>1162.999</ele>
        <time>2011-04-26T11:13:05Z</time>
      </trkpt>
      <trkpt lat="30.92282" lon="-6.98688">
        <ele>1168.388</ele>
        <time>2011-04-26T11:13:17Z</time>
      </trkpt>
      <trkpt lat="30.92336" lon="-6.98847">
        <ele>1171.673</ele>
        <time>2011-04-26T11:13:26Z</time>
      </trkpt>
      <trkpt lat="30.92311" lon="-6.99073">
        <ele>1165.91</ele>
        <time>2011-04-26T11:13:40Z</time>
      </trkpt>
      <trkpt lat="30.9295" lon="-6.99462">
        <ele>1182.442</ele>
        <time>2011-04-26T11:14:44Z</time>
      </trkpt>
      <trkpt lat="30.94023" lon="-6.98448">
        <ele>1171.699</ele>
        <time>2011-04-26T11:16:38Z</time>
      </trkpt>
      <trkpt lat="30.94034" lon="-6.9839">
        <ele>1157.127</ele>
        <time>2011-04-26T11:22:32Z</time>
      </trkpt>
      <trkpt lat="30.94149" lon="-6.98944">
        <ele>1164.855</ele>
        <time>2011-04-26T11:23:10Z</time>
      </trkpt>
      <trkpt lat="30.94271" lon="-6.99024">
        <ele>1157.536</ele>
        <time>2011-04-26T11:23:19Z</time>
      </trkpt>
      <trkpt lat="30.9432" lon="-6.99199">
        <ele>1155.359</ele>
        <time>2011-04-26T11:23:31Z</time>
      </trkpt>
      <trkpt lat="30.94416" lon="-7.00369">
        <ele>1168.738</ele>
        <time>2011-04-26T11:24:19Z</time>
      </trkpt>
      <trkpt lat="30.94665" lon="-7.01139">
        <ele>1173.388</ele>
        <time>2011-04-26T11:24:50Z</time>
      </trkpt>
      <trkpt lat="30.94735" lon="-7.02202">
        <ele>1202.198</ele>
        <time>2011-04-26T11:25:28Z</time>
      </trkpt>
      <trkpt lat="30.94847" lon="-7.03544">
        <ele>1213.704</ele>
        <time>2011-04-26T11:26:15Z</time>
      </trkpt>
      <trkpt lat="30.95382" lon="-7.04253">
        <ele>1213.832</ele>
        <time>2011-04-26T11:26:50Z</time>
      </trkpt>
      <trkpt lat="30.96166" lon="-7.04666">
        <ele>1220.217</ele>
        <time>2011-04-26T11:27:29Z</time>
      </trkpt>
      <trkpt lat="30.97094" lon="-7.05836">
        <ele>1229.012</ele>
        <time>2011-04-26T11:28:29Z</time>
      </trkpt>
      <trkpt lat="30.97212" lon="-7.0617">
        <ele>1241.231</ele>
        <time>2011-04-26T11:28:46Z</time>
      </trkpt>
      <trkpt lat="30.97639" lon="-7.06511">
        <ele>1235.933</ele>
        <time>2011-04-26T11:29:09Z</time>
      </trkpt>
      <trkpt lat="30.97612" lon="-7.0665">
        <ele>1239.934</ele>
        <time>2011-04-26T11:29:16Z</time>
      </trkpt>
      <trkpt lat="30.97183" lon="-7.07177">
        <ele>1257.306</ele>
        <time>2011-04-26T11:29:43Z</time>
      </trkpt>
      <trkpt lat="30.97135" lon="-7.07236">
        <ele>1254.552</ele>
        <time>2011-04-26T11:29:47Z</time>
      </trkpt>
      <trkpt lat="30.9717" lon="-7.07428">
        <ele>1255.832</ele>
        <time>2011-04-26T11:30:00Z</time>
      </trkpt>
      <trkpt lat="30.97" lon="-7.07508">
        <ele>1270.767</ele>
        <time>2011-04-26T11:30:10Z</time>
      </trkpt>
      <trkpt lat="30.96895" lon="-7.07551">
        <ele>1270.632</ele>
        <time>2011-04-26T11:30:18Z</time>
      </trkpt>
      <trkpt lat="30.96816" lon="-7.07968">
        <ele>1264.37</ele>
        <time>2011-04-26T11:30:42Z</time>
      </trkpt>
      <trkpt lat="30.96856" lon="-7.0858">
        <ele>1281.561</ele>
        <time>2011-04-26T11:31:07Z</time>
      </trkpt>
      <trkpt lat="30.97079" lon="-7.09191">
        <ele>1248.414</ele>
        <time>2011-04-26T11:32:03Z</time>
      </trkpt>
      <trkpt lat="30.97569" lon="-7.09414">
        <ele>1227.824</ele>
        <time>2011-04-26T11:32:40Z</time>
      </trkpt>
      <trkpt lat="30.97453" lon="-7.11015">
        <ele>1213.905</ele>
        <time>2011-04-26T11:34:03Z</time>
      </trkpt>
      <trkpt lat="30.98582" lon="-7.13091">
        <ele>1228.396</ele>
        <time>2011-04-26T11:35:43Z</time>
      </trkpt>
      <trkpt lat="30.98879" lon="-7.13636">
        <ele>1228.329</ele>
        <time>2011-04-26T11:36:16Z</time>
      </trkpt>
      <trkpt lat="31.00113" lon="-7.15347">
        <ele>1254.037</ele>
        <time>2011-04-26T11:37:44Z</time>
      </trkpt>
      <trkpt lat="31.01053" lon="-7.1554">
        <ele>1271.361</ele>
        <time>2011-04-26T11:38:24Z</time>
      </trkpt>
      <trkpt lat="31.01636" lon="-7.15669">
        <ele>1270.291</ele>
        <time>2011-04-26T11:38:48Z</time>
      </trkpt>
      <trkpt lat="31.01936" lon="-7.16072">
        <ele>1274.117</ele>
        <time>2011-04-26T11:39:06Z</time>
      </trkpt>
      <trkpt lat="31.02419" lon="-7.17196">
        <ele>1279.499</ele>
        <time>2011-04-26T11:39:58Z</time>
      </trkpt>
      <trkpt lat="31.02281" lon="-7.17461">
        <ele>1290.443</ele>
        <time>2011-04-26T11:40:18Z</time>
      </trkpt>
      <trkpt lat="31.02258" lon="-7.17658">
        <ele>1283.461</ele>
        <time>2011-04-26T11:40:35Z</time>
      </trkpt>
      <trkpt lat="31.02713" lon="-7.18802">
        <ele>1291.169</ele>
        <time>2011-04-26T11:42:52Z</time>
      </trkpt>
      <trkpt lat="31.02768" lon="-7.18975">
        <ele>1289.695</ele>
        <time>2011-04-26T11:42:59Z</time>
      </trkpt>
      <trkpt lat="31.03096" lon="-7.1921">
        <ele>1301.216</ele>
        <time>2011-04-26T11:43:14Z</time>
      </trkpt>
      <trkpt lat="31.03674" lon="-7.19364">
        <ele>1310.423</ele>
        <time>2011-04-26T11:43:39Z</time>
      </trkpt>
      <trkpt lat="31.03997" lon="-7.20034">
        <ele>1316.749</ele>
        <time>2011-04-26T11:44:10Z</time>
      </trkpt>
      <trkpt lat="31.04032" lon="-7.2031">
        <ele>1322.035</ele>
        <time>2011-04-26T11:44:24Z</time>
      </trkpt>
      <trkpt lat="31.04439" lon="-7.21063">
        <ele>1321.013</ele>
        <time>2011-04-26T11:45:14Z</time>
      </trkpt>
      <trkpt lat="31.04559" lon="-7.22044">
        <ele>1324.826</ele>
        <time>2011-04-26T11:46:18Z</time>
      </trkpt>
      <trkpt lat="31.0478" lon="-7.22928">
        <ele>1344.807</ele>
        <time>2011-04-26T11:47:05Z</time>
      </trkpt>
      <trkpt lat="31.0591" lon="-7.24902">
        <ele>1374.07</ele>
        <time>2011-04-26T11:48:35Z</time>
      </trkpt>
      <trkpt lat="31.06261" lon="-7.25318">
        <ele>1381.088</ele>
        <time>2011-04-26T13:23:16Z</time>
      </trkpt>
      <trkpt lat="31.06328" lon="-7.25434">
        <ele>1380.025</ele>
        <time>2011-04-26T13:23:24Z</time>
      </trkpt>
      <trkpt lat="31.06832" lon="-7.2565">
        <ele>1389.383</ele>
        <time>2011-04-26T13:23:54Z</time>
      </trkpt>
      <trkpt lat="31.07614" lon="-7.26331">
        <ele>1397.238</ele>
        <time>2011-04-26T13:24:45Z</time>
      </trkpt>
      <trkpt lat="31.07759" lon="-7.26712">
        <ele>1401.41</ele>
        <time>2011-04-26T13:25:06Z</time>
      </trkpt>
      <trkpt lat="31.07776" lon="-7.27377">
        <ele>1407.004</ele>
        <time>2011-04-26T13:25:40Z</time>
      </trkpt>
      <trkpt lat="31.08098" lon="-7.28139">
        <ele>1425.546</ele>
        <time>2011-04-26T13:26:14Z</time>
      </trkpt>
      <trkpt lat="31.08274" lon="-7.28554">
        <ele>1431.382</ele>
        <time>2011-04-26T13:26:32Z</time>
      </trkpt>
      <trkpt lat="31.08471" lon="-7.29088">
        <ele>1431.816</ele>
        <time>2011-04-26T13:26:55Z</time>
      </trkpt>
      <trkpt lat="31.09104" lon="-7.29801">
        <ele>1449.67</ele>
        <time>2011-04-26T13:27:36Z</time>
      </trkpt>
      <trkpt lat="31.09544" lon="-7.302">
        <ele>1445.428</ele>
        <time>2011-04-26T13:28:01Z</time>
      </trkpt>
      <trkpt lat="31.09966" lon="-7.30303">
        <ele>1456.202</ele>
        <time>2011-04-26T13:28:25Z</time>
      </trkpt>
      <trkpt lat="31.10283" lon="-7.30139">
        <ele>1464.354</ele>
        <time>2011-04-26T13:28:46Z</time>
      </trkpt>
      <trkpt lat="31.10871" lon="-7.30459">
        <ele>1475.973</ele>
        <time>2011-04-26T13:29:17Z</time>
      </trkpt>
      <trkpt lat="31.11076" lon="-7.30696">
        <ele>1476.288</ele>
        <time>2011-04-26T13:29:32Z</time>
      </trkpt>
      <trkpt lat="31.11305" lon="-7.31566">
        <ele>1480.577</ele>
        <time>2011-04-26T13:30:09Z</time>
      </trkpt>
      <trkpt lat="31.11502" lon="-7.31781">
        <ele>1491.31</ele>
        <time>2011-04-26T13:30:23Z</time>
      </trkpt>
      <trkpt lat="31.11627" lon="-7.31803">
        <ele>1499.954</ele>
        <time>2011-04-26T13:30:30Z</time>
      </trkpt>
      <trkpt lat="31.12042" lon="-7.31904">
        <ele>1500.764</ele>
        <time>2011-04-26T13:30:54Z</time>
      </trkpt>
      <trkpt lat="31.12622" lon="-7.32555">
        <ele>1515.458</ele>
        <time>2011-04-26T13:31:35Z</time>
      </trkpt>
      <trkpt lat="31.12678" lon="-7.33192">
        <ele>1528.466</ele>
        <time>2011-04-26T13:32:09Z</time>
      </trkpt>
      <trkpt lat="31.12888" lon="-7.33889">
        <ele>1523.89</ele>
        <time>2011-04-26T13:32:40Z</time>
      </trkpt>
      <trkpt lat="31.12739" lon="-7.34908">
        <ele>1528.183</ele>
        <time>2011-04-26T13:33:30Z</time>
      </trkpt>
      <trkpt lat="31.12564" lon="-7.35238">
        <ele>1542.833</ele>
        <time>2011-04-26T13:33:51Z</time>
      </trkpt>
      <trkpt lat="31.12558" lon="-7.35321">
        <ele>1542.154</ele>
        <time>2011-04-26T13:33:56Z</time>
      </trkpt>
      <trkpt lat="31.12901" lon="-7.36531">
        <ele>1563.246</ele>
        <time>2011-04-26T13:34:48Z</time>
      </trkpt>
      <trkpt lat="31.13233" lon="-7.36813">
        <ele>1576.696</ele>
        <time>2011-04-26T13:36:23Z</time>
      </trkpt>
      <trkpt lat="31.13339" lon="-7.36981">
        <ele>1588.052</ele>
        <time>2011-04-26T13:36:35Z</time>
      </trkpt>
      <trkpt lat="31.13386" lon="-7.3707">
        <ele>1588.061</ele>
        <time>2011-04-26T13:36:41Z</time>
      </trkpt>
      <trkpt lat="31.1337" lon="-7.3794">
        <ele>1626.728</ele>
        <time>2011-04-26T13:37:39Z</time>
      </trkpt>
      <trkpt lat="31.13486" lon="-7.38107">
        <ele>1641.224</ele>
        <time>2011-04-26T13:37:49Z</time>
      </trkpt>
      <trkpt lat="31.13501" lon="-7.3821">
        <ele>1644.59</ele>
        <time>2011-04-26T13:37:53Z</time>
      </trkpt>
      <trkpt lat="31.13629" lon="-7.38513">
        <ele>1640.9</ele>
        <time>2011-04-26T13:38:09Z</time>
      </trkpt>
      <trkpt lat="31.14076" lon="-7.38914">
        <ele>1618.035</ele>
        <time>2011-04-26T13:38:44Z</time>
      </trkpt>
      <trkpt lat="31.14037" lon="-7.39112">
        <ele>1618.358</ele>
        <time>2011-04-26T13:38:58Z</time>
      </trkpt>
      <trkpt lat="31.14156" lon="-7.39325">
        <ele>1615.119</ele>
        <time>2011-04-26T13:39:19Z</time>
      </trkpt>
      <trkpt lat="31.14129" lon="-7.3962">
        <ele>1598.94</ele>
        <time>2011-04-26T13:39:44Z</time>
      </trkpt>
      <trkpt lat="31.14422" lon="-7.40576">
        <ele>1621.144</ele>
        <time>2011-04-26T13:40:28Z</time>
      </trkpt>
      <trkpt lat="31.14598" lon="-7.40951">
        <ele>1616.549</ele>
        <time>2011-04-26T13:40:55Z</time>
      </trkpt>
      <trkpt lat="31.14549" lon="-7.41669">
        <ele>1624.521</ele>
        <time>2011-04-26T13:41:37Z</time>
      </trkpt>
      <trkpt lat="31.14779" lon="-7.41982">
        <ele>1629.918</ele>
        <time>2011-04-26T13:42:00Z</time>
      </trkpt>
      <trkpt lat="31.14591" lon="-7.42218">
        <ele>1641.729</ele>
        <time>2011-04-26T13:42:19Z</time>
      </trkpt>
      <trkpt lat="31.14536" lon="-7.42527">
        <ele>1641.457</ele>
        <time>2011-04-26T13:42:37Z</time>
      </trkpt>
      <trkpt lat="31.1497" lon="-7.43092">
        <ele>1662.84</ele>
        <time>2011-04-26T13:43:21Z</time>
      </trkpt>
      <trkpt lat="31.14995" lon="-7.43192">
        <ele>1664.864</ele>
        <time>2011-04-26T13:43:26Z</time>
      </trkpt>
      <trkpt lat="31.14897" lon="-7.43323">
        <ele>1666.627</ele>
        <time>2011-04-26T13:43:36Z</time>
      </trkpt>
      <trkpt lat="31.14923" lon="-7.43817">
        <ele>1669.628</ele>
        <time>2011-04-26T13:44:00Z</time>
      </trkpt>
      <trkpt lat="31.15134" lon="-7.44195">
        <ele>1669.382</ele>
        <time>2011-04-26T13:44:21Z</time>
      </trkpt>
      <trkpt lat="31.15142" lon="-7.44577">
        <ele>1681.566</ele>
        <time>2011-04-26T13:44:40Z</time>
      </trkpt>
      <trkpt lat="31.15154" lon="-7.44774">
        <ele>1679.719</ele>
        <time>2011-04-26T13:44:49Z</time>
      </trkpt>
      <trkpt lat="31.15279" lon="-7.44985">
        <ele>1680.172</ele>
        <time>2011-04-26T13:45:00Z</time>
      </trkpt>
      <trkpt lat="31.15337" lon="-7.45115">
        <ele>1679.23</ele>
        <time>2011-04-26T13:45:07Z</time>
      </trkpt>
      <trkpt lat="31.15421" lon="-7.45744">
        <ele>1693.989</ele>
        <time>2011-04-26T13:45:40Z</time>
      </trkpt>
      <trkpt lat="31.15479" lon="-7.45865">
        <ele>1693.718</ele>
        <time>2011-04-26T13:45:47Z</time>
      </trkpt>
      <trkpt lat="31.15984" lon="-7.46429">
        <ele>1697.226</ele>
        <time>2011-04-26T13:46:32Z</time>
      </trkpt>
      <trkpt lat="31.16296" lon="-7.46554">
        <ele>1693.713</ele>
        <time>2011-04-26T13:47:00Z</time>
      </trkpt>
      <trkpt lat="31.16543" lon="-7.46347">
        <ele>1701.417</ele>
        <time>2011-04-26T13:47:22Z</time>
      </trkpt>
      <trkpt lat="31.17037" lon="-7.46596">
        <ele>1716.414</ele>
        <time>2011-04-26T13:49:41Z</time>
      </trkpt>
      <trkpt lat="31.17115" lon="-7.466">
        <ele>1717.128</ele>
        <time>2011-04-26T13:49:45Z</time>
      </trkpt>
      <trkpt lat="31.17354" lon="-7.46588">
        <ele>1710.21</ele>
        <time>2011-04-26T13:49:59Z</time>
      </trkpt>
      <trkpt lat="31.17884" lon="-7.46046">
        <ele>1720.291</ele>
        <time>2011-04-26T13:50:32Z</time>
      </trkpt>
      <trkpt lat="31.18329" lon="-7.45849">
        <ele>1736.705</ele>
        <time>2011-04-26T13:50:57Z</time>
      </trkpt>
      <trkpt lat="31.18649" lon="-7.45854">
        <ele>1732.983</ele>
        <time>2011-04-26T13:51:14Z</time>
      </trkpt>
      <trkpt lat="31.19429" lon="-7.45468">
        <ele>1757.242</ele>
        <time>2011-04-26T13:51:52Z</time>
      </trkpt>
      <trkpt lat="31.19649" lon="-7.45163">
        <ele>1763.375</ele>
        <time>2011-04-26T13:52:10Z</time>
      </trkpt>
      <trkpt lat="31.19616" lon="-7.44824">
        <ele>1773.374</ele>
        <time>2011-04-26T13:52:27Z</time>
      </trkpt>
      <trkpt lat="31.1973" lon="-7.44518">
        <ele>1783.41</ele>
        <time>2011-04-26T13:52:41Z</time>
      </trkpt>
      <trkpt lat="31.20018" lon="-7.44137">
        <ele>1801.789</ele>
        <time>2011-04-26T13:53:56Z</time>
      </trkpt>
      <trkpt lat="31.20063" lon="-7.44083">
        <ele>1803.537</ele>
        <time>2011-04-26T13:53:59Z</time>
      </trkpt>
      <trkpt lat="31.20352" lon="-7.43866">
        <ele>1811.302</ele>
        <time>2011-04-26T13:54:17Z</time>
      </trkpt>
      <trkpt lat="31.20761" lon="-7.43887">
        <ele>1816.2</ele>
        <time>2011-04-26T13:55:13Z</time>
      </trkpt>
      <trkpt lat="31.20891" lon="-7.43631">
        <ele>1811.047</ele>
        <time>2011-04-26T13:55:32Z</time>
      </trkpt>
      <trkpt lat="31.21112" lon="-7.43586">
        <ele>1823.013</ele>
        <time>2011-04-26T13:55:45Z</time>
      </trkpt>
      <trkpt lat="31.21369" lon="-7.43292">
        <ele>1832.19</ele>
        <time>2011-04-26T13:56:04Z</time>
      </trkpt>
      <trkpt lat="31.21631" lon="-7.43147">
        <ele>1847.303</ele>
        <time>2011-04-26T13:56:18Z</time>
      </trkpt>
      <trkpt lat="31.21881" lon="-7.43073">
        <ele>1845.352</ele>
        <time>2011-04-26T13:56:31Z</time>
      </trkpt>
      <trkpt lat="31.22008" lon="-7.42855">
        <ele>1852.38</ele>
        <time>2011-04-26T13:56:43Z</time>
      </trkpt>
      <trkpt lat="31.22294" lon="-7.42666">
        <ele>1877.142</ele>
        <time>2011-04-26T13:57:03Z</time>
      </trkpt>
      <trkpt lat="31.22432" lon="-7.42489">
        <ele>1886.766</ele>
        <time>2011-04-26T13:57:14Z</time>
      </trkpt>
      <trkpt lat="31.22566" lon="-7.42521">
        <ele>1897.891</ele>
        <time>2011-04-26T13:57:24Z</time>
      </trkpt>
      <trkpt lat="31.22909" lon="-7.42594">
        <ele>1903.798</ele>
        <time>2011-04-26T13:57:51Z</time>
      </trkpt>
      <trkpt lat="31.22852" lon="-7.42417">
        <ele>1912.51</ele>
        <time>2011-04-26T13:58:04Z</time>
      </trkpt>
      <trkpt lat="31.22979" lon="-7.42288">
        <ele>1918.955</ele>
        <time>2011-04-26T13:58:15Z</time>
      </trkpt>
      <trkpt lat="31.22985" lon="-7.42213">
        <ele>1921.366</ele>
        <time>2011-04-26T13:58:19Z</time>
      </trkpt>
      <trkpt lat="31.22904" lon="-7.42173">
        <ele>1927.208</ele>
        <time>2011-04-26T13:58:27Z</time>
      </trkpt>
      <trkpt lat="31.22862" lon="-7.42144">
        <ele>1926.474</ele>
        <time>2011-04-26T13:58:32Z</time>
      </trkpt>
      <trkpt lat="31.22997" lon="-7.42033">
        <ele>1936.671</ele>
        <time>2011-04-26T13:58:43Z</time>
      </trkpt>
      <trkpt lat="31.23088" lon="-7.41819">
        <ele>1948.649</ele>
        <time>2011-04-26T13:58:57Z</time>
      </trkpt>
      <trkpt lat="31.23174" lon="-7.41671">
        <ele>1956.329</ele>
        <time>2011-04-26T13:59:05Z</time>
      </trkpt>
      <trkpt lat="31.23251" lon="-7.41591">
        <ele>1956.34</ele>
        <time>2011-04-26T13:59:11Z</time>
      </trkpt>
      <trkpt lat="31.23504" lon="-7.41497">
        <ele>1981.064</ele>
        <time>2011-04-26T13:59:29Z</time>
      </trkpt>
      <trkpt lat="31.23804" lon="-7.41442">
        <ele>1994.888</ele>
        <time>2011-04-26T13:59:45Z</time>
      </trkpt>
      <trkpt lat="31.24086" lon="-7.41476">
        <ele>1983.982</ele>
        <time>2011-04-26T14:00:02Z</time>
      </trkpt>
      <trkpt lat="31.24183" lon="-7.41323">
        <ele>1985.446</ele>
        <time>2011-04-26T14:00:13Z</time>
      </trkpt>
      <trkpt lat="31.24712" lon="-7.41097">
        <ele>1978.588</ele>
        <time>2011-04-26T14:00:55Z</time>
      </trkpt>
      <trkpt lat="31.25194" lon="-7.41032">
        <ele>2004.527</ele>
        <time>2011-04-26T14:01:20Z</time>
      </trkpt>
      <trkpt lat="31.25338" lon="-7.41011">
        <ele>2005.605</ele>
        <time>2011-04-26T14:01:27Z</time>
      </trkpt>
      <trkpt lat="31.26365" lon="-7.41299">
        <ele>2037.687</ele>
        <time>2011-04-26T14:02:20Z</time>
      </trkpt>
      <trkpt lat="31.27082" lon="-7.41301">
        <ele>2079.876</ele>
        <time>2011-04-26T14:03:03Z</time>
      </trkpt>
      <trkpt lat="31.2702" lon="-7.41159">
        <ele>2088.407</ele>
        <time>2011-04-26T14:03:14Z</time>
      </trkpt>
      <trkpt lat="31.26746" lon="-7.40958">
        <ele>2104.386</ele>
        <time>2011-04-26T14:03:43Z</time>
      </trkpt>
      <trkpt lat="31.26604" lon="-7.40884">
        <ele>2106.182</ele>
        <time>2011-04-26T14:03:54Z</time>
      </trkpt>
      <trkpt lat="31.26358" lon="-7.40381">
        <ele>2119.599</ele>
        <time>2011-04-26T14:04:25Z</time>
      </trkpt>
      <trkpt lat="31.25981" lon="-7.40133">
        <ele>2138.969</ele>
        <time>2011-04-26T14:04:58Z</time>
      </trkpt>
      <trkpt lat="31.25883" lon="-7.39844">
        <ele>2149.285</ele>
        <time>2011-04-26T14:05:17Z</time>
      </trkpt>
      <trkpt lat="31.26022" lon="-7.39606">
        <ele>2135.238</ele>
        <time>2011-04-26T14:05:37Z</time>
      </trkpt>
      <trkpt lat="31.26214" lon="-7.39609">
        <ele>2121.829</ele>
        <time>2011-04-26T14:05:54Z</time>
      </trkpt>
      <trkpt lat="31.26116" lon="-7.3901">
        <ele>2115.712</ele>
        <time>2011-04-26T14:06:28Z</time>
      </trkpt>
      <trkpt lat="31.26089" lon="-7.38895">
        <ele>2111.333</ele>
        <time>2011-04-26T14:06:34Z</time>
      </trkpt>
      <trkpt lat="31.26208" lon="-7.38504">
        <ele>2108.172</ele>
        <time>2011-04-26T14:06:54Z</time>
      </trkpt>
      <trkpt lat="31.26236" lon="-7.38418">
        <ele>2101.298</ele>
        <time>2011-04-26T14:06:59Z</time>
      </trkpt>
      <trkpt lat="31.2679" lon="-7.38368">
        <ele>2116.423</ele>
        <time>2011-04-26T14:07:54Z</time>
      </trkpt>
      <trkpt lat="31.26732" lon="-7.38193">
        <ele>2124.089</ele>
        <time>2011-04-26T14:08:09Z</time>
      </trkpt>
      <trkpt lat="31.26825" lon="-7.38086">
        <ele>2138.727</ele>
        <time>2011-04-26T14:08:19Z</time>
      </trkpt>
      <trkpt lat="31.26899" lon="-7.37968">
        <ele>2140.978</ele>
        <time>2011-04-26T14:08:27Z</time>
      </trkpt>
      <trkpt lat="31.27007" lon="-7.38088">
        <ele>2149.771</ele>
        <time>2011-04-26T14:08:39Z</time>
      </trkpt>
      <trkpt lat="31.27166" lon="-7.3804">
        <ele>2157.639</ele>
        <time>2011-04-26T14:09:02Z</time>
      </trkpt>
      <trkpt lat="31.27245" lon="-7.37883">
        <ele>2167.342</ele>
        <time>2011-04-26T14:09:24Z</time>
      </trkpt>
      <trkpt lat="31.27335" lon="-7.37906">
        <ele>2172.011</ele>
        <time>2011-04-26T14:09:37Z</time>
      </trkpt>
      <trkpt lat="31.27373" lon="-7.37887">
        <ele>2173.788</ele>
        <time>2011-04-26T14:09:43Z</time>
      </trkpt>
      <trkpt lat="31.27473" lon="-7.37706">
        <ele>2187.114</ele>
        <time>2011-04-26T14:10:00Z</time>
      </trkpt>
      <trkpt lat="31.27622" lon="-7.37588">
        <ele>2194.346</ele>
        <time>2011-04-26T14:10:11Z</time>
      </trkpt>
      <trkpt lat="31.27893" lon="-7.37763">
        <ele>2202.597</ele>
        <time>2011-04-26T14:10:34Z</time>
      </trkpt>
      <trkpt lat="31.27953" lon="-7.37893">
        <ele>2200.545</ele>
        <time>2011-04-26T14:10:46Z</time>
      </trkpt>
      <trkpt lat="31.28064" lon="-7.37856">
        <ele>2201.761</ele>
        <time>2011-04-26T14:10:56Z</time>
      </trkpt>
      <trkpt lat="31.28196" lon="-7.37999">
        <ele>2201.357</ele>
        <time>2011-04-26T14:11:10Z</time>
      </trkpt>
      <trkpt lat="31.2823" lon="-7.38025">
        <ele>2199.309</ele>
        <time>2011-04-26T14:11:13Z</time>
      </trkpt>
      <trkpt lat="31.283" lon="-7.38298">
        <ele>2188.615</ele>
        <time>2011-04-26T14:11:32Z</time>
      </trkpt>
      <trkpt lat="31.28562" lon="-7.38114">
        <ele>2195.696</ele>
        <time>2011-04-26T14:12:00Z</time>
      </trkpt>
      <trkpt lat="31.2865" lon="-7.38141">
        <ele>2195.04</ele>
        <time>2011-04-26T14:12:12Z</time>
      </trkpt>
      <trkpt lat="31.28543" lon="-7.38424">
        <ele>2179.193</ele>
        <time>2011-04-26T14:13:13Z</time>
      </trkpt>
      <trkpt lat="31.2887" lon="-7.38217">
        <ele>2163.13</ele>
        <time>2011-04-26T14:13:36Z</time>
      </trkpt>
      <trkpt lat="31.29002" lon="-7.3828">
        <ele>2146.487</ele>
        <time>2011-04-26T14:13:51Z</time>
      </trkpt>
      <trkpt lat="31.29882" lon="-7.37158">
        <ele>2105.211</ele>
        <time>2011-04-26T14:14:57Z</time>
      </trkpt>
      <trkpt lat="31.30133" lon="-7.37113">
        <ele>2092.253</ele>
        <time>2011-04-26T14:15:10Z</time>
      </trkpt>
      <trkpt lat="31.30381" lon="-7.3722">
        <ele>2086.412</ele>
        <time>2011-04-26T14:15:25Z</time>
      </trkpt>
      <trkpt lat="31.30685" lon="-7.37368">
        <ele>2071.937</ele>
        <time>2011-04-26T14:15:55Z</time>
      </trkpt>
      <trkpt lat="31.31004" lon="-7.37295">
        <ele>2088.748</ele>
        <time>2011-04-26T14:16:21Z</time>
      </trkpt>
      <trkpt lat="31.31036" lon="-7.37267">
        <ele>2087.382</ele>
        <time>2011-04-26T14:16:24Z</time>
      </trkpt>
      <trkpt lat="31.31223" lon="-7.3704">
        <ele>2072.319</ele>
        <time>2011-04-26T14:16:46Z</time>
      </trkpt>
      <trkpt lat="31.31361" lon="-7.37411">
        <ele>2062.223</ele>
        <time>2011-04-26T14:17:32Z</time>
      </trkpt>
      <trkpt lat="31.31557" lon="-7.37568">
        <ele>2048.902</ele>
        <time>2011-04-26T14:17:57Z</time>
      </trkpt>
      <trkpt lat="31.31614" lon="-7.37897">
        <ele>2044.476</ele>
        <time>2011-04-26T14:19:18Z</time>
      </trkpt>
      <trkpt lat="31.31717" lon="-7.37929">
        <ele>2042.819</ele>
        <time>2011-04-26T14:19:26Z</time>
      </trkpt>
      <trkpt lat="31.31969" lon="-7.37877">
        <ele>2035.704</ele>
        <time>2011-04-26T14:19:46Z</time>
      </trkpt>
      <trkpt lat="31.31852" lon="-7.37855">
        <ele>2008.621</ele>
        <time>2011-04-26T14:20:00Z</time>
      </trkpt>
      <trkpt lat="31.31964" lon="-7.37737">
        <ele>2000.034</ele>
        <time>2011-04-26T14:20:14Z</time>
      </trkpt>
      <trkpt lat="31.31897" lon="-7.37581">
        <ele>1989.717</ele>
        <time>2011-04-26T14:20:28Z</time>
      </trkpt>
      <trkpt lat="31.32031" lon="-7.37765">
        <ele>1981.427</ele>
        <time>2011-04-26T14:20:42Z</time>
      </trkpt>
      <trkpt lat="31.32153" lon="-7.37786">
        <ele>1977.49</ele>
        <time>2011-04-26T14:20:49Z</time>
      </trkpt>
      <trkpt lat="31.32315" lon="-7.37699">
        <ele>1955.478</ele>
        <time>2011-04-26T14:21:05Z</time>
      </trkpt>
      <trkpt lat="31.32094" lon="-7.37662">
        <ele>1939.321</ele>
        <time>2011-04-26T14:21:18Z</time>
      </trkpt>
      <trkpt lat="31.32082" lon="-7.37616">
        <ele>1933.768</ele>
        <time>2011-04-26T14:21:25Z</time>
      </trkpt>
      <trkpt lat="31.32395" lon="-7.3762">
        <ele>1927.32</ele>
        <time>2011-04-26T14:21:44Z</time>
      </trkpt>
      <trkpt lat="31.3231" lon="-7.37825">
        <ele>1915.624</ele>
        <time>2011-04-26T14:22:00Z</time>
      </trkpt>
      <trkpt lat="31.32144" lon="-7.37907">
        <ele>1899.17</ele>
        <time>2011-04-26T14:22:16Z</time>
      </trkpt>
      <trkpt lat="31.32161" lon="-7.38046">
        <ele>1889.117</ele>
        <time>2011-04-26T14:22:34Z</time>
      </trkpt>
      <trkpt lat="31.33009" lon="-7.38174">
        <ele>1833.889</ele>
        <time>2011-04-26T14:32:17Z</time>
      </trkpt>
      <trkpt lat="31.33159" lon="-7.38389">
        <ele>1814.243</ele>
        <time>2011-04-26T14:45:56Z</time>
      </trkpt>
      <trkpt lat="31.3303" lon="-7.38054">
        <ele>1793.775</ele>
        <time>2011-04-26T14:46:21Z</time>
      </trkpt>
      <trkpt lat="31.32654" lon="-7.37966">
        <ele>1774.725</ele>
        <time>2011-04-26T14:47:03Z</time>
      </trkpt>
      <trkpt lat="31.32614" lon="-7.37938">
        <ele>1768.207</ele>
        <time>2011-04-26T14:47:10Z</time>
      </trkpt>
      <trkpt lat="31.32862" lon="-7.37842">
        <ele>1752.184</ele>
        <time>2011-04-26T14:47:33Z</time>
      </trkpt>
      <trkpt lat="31.32833" lon="-7.3769">
        <ele>1748.569</ele>
        <time>2011-04-26T14:47:53Z</time>
      </trkpt>
      <trkpt lat="31.3295" lon="-7.37763">
        <ele>1746.084</ele>
        <time>2011-04-26T14:48:04Z</time>
      </trkpt>
      <trkpt lat="31.32961" lon="-7.37898">
        <ele>1732.5</ele>
        <time>2011-04-26T14:48:27Z</time>
      </trkpt>
      <trkpt lat="31.33242" lon="-7.37906">
        <ele>1722.521</ele>
        <time>2011-04-26T14:48:50Z</time>
      </trkpt>
      <trkpt lat="31.33354" lon="-7.38159">
        <ele>1710.424</ele>
        <time>2011-04-26T14:49:14Z</time>
      </trkpt>
      <trkpt lat="31.33567" lon="-7.38267">
        <ele>1705.509</ele>
        <time>2011-04-26T14:49:42Z</time>
      </trkpt>
      <trkpt lat="31.33684" lon="-7.3842">
        <ele>1696.42</ele>
        <time>2011-04-26T14:49:57Z</time>
      </trkpt>
      <trkpt lat="31.337" lon="-7.38835">
        <ele>1691.125</ele>
        <time>2011-04-26T14:50:31Z</time>
      </trkpt>
      <trkpt lat="31.33864" lon="-7.39039">
        <ele>1681.241</ele>
        <time>2011-04-26T14:50:48Z</time>
      </trkpt>
      <trkpt lat="31.34239" lon="-7.39312">
        <ele>1652.738</ele>
        <time>2011-04-26T14:51:23Z</time>
      </trkpt>
      <trkpt lat="31.34353" lon="-7.39323">
        <ele>1644.483</ele>
        <time>2011-04-26T14:51:33Z</time>
      </trkpt>
      <trkpt lat="31.34538" lon="-7.39114">
        <ele>1641.906</ele>
        <time>2011-04-26T14:52:02Z</time>
      </trkpt>
      <trkpt lat="31.34637" lon="-7.39051">
        <ele>1635.99</ele>
        <time>2011-04-26T14:52:10Z</time>
      </trkpt>
      <trkpt lat="31.35307" lon="-7.39212">
        <ele>1618.481</ele>
        <time>2011-04-26T14:53:20Z</time>
      </trkpt>
      <trkpt lat="31.35845" lon="-7.39147">
        <ele>1607.533</ele>
        <time>2011-04-26T14:54:03Z</time>
      </trkpt>
      <trkpt lat="31.3607" lon="-7.3899">
        <ele>1606.803</ele>
        <time>2011-04-26T14:54:29Z</time>
      </trkpt>
      <trkpt lat="31.36302" lon="-7.39172">
        <ele>1604.092</ele>
        <time>2011-04-26T14:55:00Z</time>
      </trkpt>
      <trkpt lat="31.36451" lon="-7.39055">
        <ele>1593.653</ele>
        <time>2011-04-26T14:55:15Z</time>
      </trkpt>
      <trkpt lat="31.36515" lon="-7.39218">
        <ele>1583.004</ele>
        <time>2011-04-26T14:55:31Z</time>
      </trkpt>
      <trkpt lat="31.36695" lon="-7.39226">
        <ele>1584.05</ele>
        <time>2011-04-26T14:55:44Z</time>
      </trkpt>
      <trkpt lat="31.36783" lon="-7.38903">
        <ele>1584.238</ele>
        <time>2011-04-26T14:56:04Z</time>
      </trkpt>
      <trkpt lat="31.3698" lon="-7.38771">
        <ele>1584.969</ele>
        <time>2011-04-26T14:56:22Z</time>
      </trkpt>
      <trkpt lat="31.37075" lon="-7.39225">
        <ele>1557.287</ele>
        <time>2011-04-26T14:56:59Z</time>
      </trkpt>
      <trkpt lat="31.36941" lon="-7.39343">
        <ele>1544.105</ele>
        <time>2011-04-26T14:57:15Z</time>
      </trkpt>
      <trkpt lat="31.37099" lon="-7.39519">
        <ele>1536.258</ele>
        <time>2011-04-26T14:57:29Z</time>
      </trkpt>
      <trkpt lat="31.37029" lon="-7.39776">
        <ele>1528.85</ele>
        <time>2011-04-26T14:57:49Z</time>
      </trkpt>
      <trkpt lat="31.3717" lon="-7.39846">
        <ele>1526.899</ele>
        <time>2011-04-26T14:58:03Z</time>
      </trkpt>
      <trkpt lat="31.37271" lon="-7.403">
        <ele>1536.087</ele>
        <time>2011-04-26T14:58:44Z</time>
      </trkpt>
      <trkpt lat="31.37156" lon="-7.403">
        <ele>1529.509</ele>
        <time>2011-04-26T14:58:54Z</time>
      </trkpt>
      <trkpt lat="31.37107" lon="-7.40464">
        <ele>1524.212</ele>
        <time>2011-04-26T14:59:06Z</time>
      </trkpt>
      <trkpt lat="31.37114" lon="-7.40819">
        <ele>1502.146</ele>
        <time>2011-04-26T14:59:30Z</time>
      </trkpt>
      <trkpt lat="31.37161" lon="-7.40935">
        <ele>1495.062</ele>
        <time>2011-04-26T14:59:38Z</time>
      </trkpt>
      <trkpt lat="31.37238" lon="-7.40952">
        <ele>1490.801</ele>
        <time>2011-04-26T14:59:45Z</time>
      </trkpt>
      <trkpt lat="31.37266" lon="-7.41159">
        <ele>1490.589</ele>
        <time>2011-04-26T15:00:08Z</time>
      </trkpt>
      <trkpt lat="31.37452" lon="-7.41232">
        <ele>1490.566</ele>
        <time>2011-04-26T15:00:36Z</time>
      </trkpt>
      <trkpt lat="31.37729" lon="-7.40894">
        <ele>1485.739</ele>
        <time>2011-04-26T15:01:04Z</time>
      </trkpt>
      <trkpt lat="31.38003" lon="-7.4073">
        <ele>1476.688</ele>
        <time>2011-04-26T15:01:22Z</time>
      </trkpt>
      <trkpt lat="31.38351" lon="-7.40955">
        <ele>1467.236</ele>
        <time>2011-04-26T15:01:54Z</time>
      </trkpt>
      <trkpt lat="31.38463" lon="-7.40899">
        <ele>1461.365</ele>
        <time>2011-04-26T15:02:02Z</time>
      </trkpt>
      <trkpt lat="31.38485" lon="-7.40799">
        <ele>1454.727</ele>
        <time>2011-04-26T15:02:09Z</time>
      </trkpt>
      <trkpt lat="31.38637" lon="-7.4094">
        <ele>1449.418</ele>
        <time>2011-04-26T15:02:33Z</time>
      </trkpt>
      <trkpt lat="31.38687" lon="-7.40775">
        <ele>1446.281</ele>
        <time>2011-04-26T15:02:57Z</time>
      </trkpt>
      <trkpt lat="31.38903" lon="-7.40941">
        <ele>1442.79</ele>
        <time>2011-04-26T15:03:27Z</time>
      </trkpt>
      <trkpt lat="31.39135" lon="-7.40474">
        <ele>1440.659</ele>
        <time>2011-04-26T15:04:37Z</time>
      </trkpt>
      <trkpt lat="31.39287" lon="-7.4043">
        <ele>1436.179</ele>
        <time>2011-04-26T15:04:56Z</time>
      </trkpt>
      <trkpt lat="31.39284" lon="-7.40325">
        <ele>1436.276</ele>
        <time>2011-04-26T15:05:03Z</time>
      </trkpt>
      <trkpt lat="31.39262" lon="-7.40094">
        <ele>1421.203</ele>
        <time>2011-04-26T15:05:19Z</time>
      </trkpt>
      <trkpt lat="31.39347" lon="-7.40108">
        <ele>1419.071</ele>
        <time>2011-04-26T15:05:26Z</time>
      </trkpt>
      <trkpt lat="31.39553" lon="-7.39955">
        <ele>1418.706</ele>
        <time>2011-04-26T15:05:45Z</time>
      </trkpt>
      <trkpt lat="31.39581" lon="-7.39833">
        <ele>1419.383</ele>
        <time>2011-04-26T15:05:54Z</time>
      </trkpt>
      <trkpt lat="31.39699" lon="-7.39798">
        <ele>1427.181</ele>
        <time>2011-04-26T15:06:05Z</time>
      </trkpt>
      <trkpt lat="31.39846" lon="-7.39754">
        <ele>1423.611</ele>
        <time>2011-04-26T15:06:17Z</time>
      </trkpt>
      <trkpt lat="31.40037" lon="-7.39445">
        <ele>1411.061</ele>
        <time>2011-04-26T15:06:59Z</time>
      </trkpt>
      <trkpt lat="31.40266" lon="-7.39604">
        <ele>1401.006</ele>
        <time>2011-04-26T15:07:21Z</time>
      </trkpt>
      <trkpt lat="31.40533" lon="-7.39588">
        <ele>1400.347</ele>
        <time>2011-04-26T15:07:47Z</time>
      </trkpt>
      <trkpt lat="31.40631" lon="-7.39619">
        <ele>1396.497</ele>
        <time>2011-04-26T15:07:54Z</time>
      </trkpt>
      <trkpt lat="31.40704" lon="-7.39297">
        <ele>1395.943</ele>
        <time>2011-04-26T15:08:19Z</time>
      </trkpt>
      <trkpt lat="31.40953" lon="-7.39188">
        <ele>1410.09</ele>
        <time>2011-04-26T15:08:42Z</time>
      </trkpt>
      <trkpt lat="31.41062" lon="-7.39197">
        <ele>1402.789</ele>
        <time>2011-04-26T15:08:51Z</time>
      </trkpt>
      <trkpt lat="31.41197" lon="-7.39052">
        <ele>1396.326</ele>
        <time>2011-04-26T15:09:14Z</time>
      </trkpt>
      <trkpt lat="31.41581" lon="-7.39148">
        <ele>1374.822</ele>
        <time>2011-04-26T15:10:50Z</time>
      </trkpt>
      <trkpt lat="31.41577" lon="-7.39302">
        <ele>1368.638</ele>
        <time>2011-04-26T15:11:05Z</time>
      </trkpt>
      <trkpt lat="31.41366" lon="-7.396">
        <ele>1357.829</ele>
        <time>2011-04-26T15:11:54Z</time>
      </trkpt>
      <trkpt lat="31.41354" lon="-7.3973">
        <ele>1353.545</ele>
        <time>2011-04-26T15:12:00Z</time>
      </trkpt>
      <trkpt lat="31.41466" lon="-7.40024">
        <ele>1334.402</ele>
        <time>2011-04-26T15:12:26Z</time>
      </trkpt>
      <trkpt lat="31.41467" lon="-7.40088">
        <ele>1329.824</ele>
        <time>2011-04-26T15:12:31Z</time>
      </trkpt>
      <trkpt lat="31.41702" lon="-7.40337">
        <ele>1324.698</ele>
        <time>2011-04-26T15:12:54Z</time>
      </trkpt>
      <trkpt lat="31.4183" lon="-7.40388">
        <ele>1319.255</ele>
        <time>2011-04-26T15:13:07Z</time>
      </trkpt>
      <trkpt lat="31.41791" lon="-7.40581">
        <ele>1319.258</ele>
        <time>2011-04-26T15:13:23Z</time>
      </trkpt>
      <trkpt lat="31.42193" lon="-7.40594">
        <ele>1314.882</ele>
        <time>2011-04-26T15:13:52Z</time>
      </trkpt>
      <trkpt lat="31.42132" lon="-7.40735">
        <ele>1308.038</ele>
        <time>2011-04-26T15:14:08Z</time>
      </trkpt>
      <trkpt lat="31.42355" lon="-7.40822">
        <ele>1311.925</ele>
        <time>2011-04-26T15:14:24Z</time>
      </trkpt>
      <trkpt lat="31.42549" lon="-7.40969">
        <ele>1304.961</ele>
        <time>2011-04-26T15:14:44Z</time>
      </trkpt>
      <trkpt lat="31.4256" lon="-7.41097">
        <ele>1299.522</ele>
        <time>2011-04-26T15:14:53Z</time>
      </trkpt>
      <trkpt lat="31.42854" lon="-7.40871">
        <ele>1293.301</ele>
        <time>2011-04-26T15:15:42Z</time>
      </trkpt>
      <trkpt lat="31.43209" lon="-7.41112">
        <ele>1270.054</ele>
        <time>2011-04-26T15:16:18Z</time>
      </trkpt>
      <trkpt lat="31.43387" lon="-7.40854">
        <ele>1272.008</ele>
        <time>2011-04-26T15:16:50Z</time>
      </trkpt>
      <trkpt lat="31.43598" lon="-7.4076">
        <ele>1278.5</ele>
        <time>2011-04-26T15:17:16Z</time>
      </trkpt>
      <trkpt lat="31.43658" lon="-7.40553">
        <ele>1274.143</ele>
        <time>2011-04-26T15:17:38Z</time>
      </trkpt>
      <trkpt lat="31.43839" lon="-7.40665">
        <ele>1276.086</ele>
        <time>2011-04-26T15:18:06Z</time>
      </trkpt>
      <trkpt lat="31.43848" lon="-7.40561">
        <ele>1278.406</ele>
        <time>2011-04-26T15:18:15Z</time>
      </trkpt>
      <trkpt lat="31.4398" lon="-7.40482">
        <ele>1282.128</ele>
        <time>2011-04-26T15:18:41Z</time>
      </trkpt>
      <trkpt lat="31.44003" lon="-7.40395">
        <ele>1286.764</ele>
        <time>2011-04-26T15:18:48Z</time>
      </trkpt>
      <trkpt lat="31.44404" lon="-7.39872">
        <ele>1270.422</ele>
        <time>2011-04-26T15:19:30Z</time>
      </trkpt>
      <trkpt lat="31.44605" lon="-7.39761">
        <ele>1270.834</ele>
        <time>2011-04-26T15:19:46Z</time>
      </trkpt>
      <trkpt lat="31.4462" lon="-7.39631">
        <ele>1270.971</ele>
        <time>2011-04-26T15:19:58Z</time>
      </trkpt>
      <trkpt lat="31.44803" lon="-7.39501">
        <ele>1289.067</ele>
        <time>2011-04-26T15:20:25Z</time>
      </trkpt>
      <trkpt lat="31.44913" lon="-7.3941">
        <ele>1291.562</ele>
        <time>2011-04-26T15:20:40Z</time>
      </trkpt>
      <trkpt lat="31.45145" lon="-7.39464">
        <ele>1300.332</ele>
        <time>2011-04-26T15:21:03Z</time>
      </trkpt>
      <trkpt lat="31.45158" lon="-7.39605">
        <ele>1306.172</ele>
        <time>2011-04-26T15:21:16Z</time>
      </trkpt>
      <trkpt lat="31.45187" lon="-7.39727">
        <ele>1310.422</ele>
        <time>2011-04-26T15:21:26Z</time>
      </trkpt>
      <trkpt lat="31.45442" lon="-7.39731">
        <ele>1328.125</ele>
        <time>2011-04-26T15:21:44Z</time>
      </trkpt>
      <trkpt lat="31.45516" lon="-7.40147">
        <ele>1350.21</ele>
        <time>2011-04-26T15:22:06Z</time>
      </trkpt>
      <trkpt lat="31.45677" lon="-7.40228">
        <ele>1362.249</ele>
        <time>2011-04-26T15:22:19Z</time>
      </trkpt>
      <trkpt lat="31.45762" lon="-7.4038">
        <ele>1373.805</ele>
        <time>2011-04-26T15:22:31Z</time>
      </trkpt>
      <trkpt lat="31.45681" lon="-7.40535">
        <ele>1381.937</ele>
        <time>2011-04-26T15:22:44Z</time>
      </trkpt>
      <trkpt lat="31.45661" lon="-7.40617">
        <ele>1381.665</ele>
        <time>2011-04-26T15:22:52Z</time>
      </trkpt>
      <trkpt lat="31.45971" lon="-7.40566">
        <ele>1401.812</ele>
        <time>2011-04-26T15:23:26Z</time>
      </trkpt>
      <trkpt lat="31.46092" lon="-7.40719">
        <ele>1414.474</ele>
        <time>2011-04-26T15:23:38Z</time>
      </trkpt>
      <trkpt lat="31.46262" lon="-7.40601">
        <ele>1429.162</ele>
        <time>2011-04-26T15:23:51Z</time>
      </trkpt>
      <trkpt lat="31.46733" lon="-7.40063">
        <ele>1459.739</ele>
        <time>2011-04-26T15:24:34Z</time>
      </trkpt>
      <trkpt lat="31.46969" lon="-7.39825">
        <ele>1474.494</ele>
        <time>2011-04-26T15:25:59Z</time>
      </trkpt>
      <trkpt lat="31.4707" lon="-7.39778">
        <ele>1474.494</ele>
        <time>2011-04-26T15:26:08Z</time>
      </trkpt>
      <trkpt lat="31.47255" lon="-7.41095">
        <ele>1522.261</ele>
        <time>2011-04-26T15:27:15Z</time>
      </trkpt>
      <trkpt lat="31.47553" lon="-7.4243">
        <ele>1500.3</ele>
        <time>2011-04-26T15:28:26Z</time>
      </trkpt>
      <trkpt lat="31.47532" lon="-7.42873">
        <ele>1469.053</ele>
        <time>2011-04-26T15:28:50Z</time>
      </trkpt>
      <trkpt lat="31.4734" lon="-7.43292">
        <ele>1441.037</ele>
        <time>2011-04-26T15:29:23Z</time>
      </trkpt>
      <trkpt lat="31.47927" lon="-7.43468">
        <ele>1437.422</ele>
        <time>2011-04-26T15:30:10Z</time>
      </trkpt>
      <trkpt lat="31.48309" lon="-7.4315">
        <ele>1430.153</ele>
        <time>2011-04-26T15:30:49Z</time>
      </trkpt>
      <trkpt lat="31.48645" lon="-7.43191">
        <ele>1427.792</ele>
        <time>2011-04-26T15:31:11Z</time>
      </trkpt>
      <trkpt lat="31.48955" lon="-7.43721">
        <ele>1457.986</ele>
        <time>2011-04-26T15:31:53Z</time>
      </trkpt>
      <trkpt lat="31.48979" lon="-7.43888">
        <ele>1463.262</ele>
        <time>2011-04-26T15:32:06Z</time>
      </trkpt>
      <trkpt lat="31.48526" lon="-7.44946">
        <ele>1391.226</ele>
        <time>2011-04-26T15:34:28Z</time>
      </trkpt>
      <trkpt lat="31.49036" lon="-7.45121">
        <ele>1388.598</ele>
        <time>2011-04-26T15:35:27Z</time>
      </trkpt>
      <trkpt lat="31.49453" lon="-7.45408">
        <ele>1306.644</ele>
        <time>2011-04-26T15:35:57Z</time>
      </trkpt>
      <trkpt lat="31.49628" lon="-7.45886">
        <ele>1277.462</ele>
        <time>2011-04-26T15:36:21Z</time>
      </trkpt>
      <trkpt lat="31.49636" lon="-7.46196">
        <ele>1261.083</ele>
        <time>2011-04-26T15:36:42Z</time>
      </trkpt>
      <trkpt lat="31.49864" lon="-7.46335">
        <ele>1257.559</ele>
        <time>2011-04-26T15:36:59Z</time>
      </trkpt>
      <trkpt lat="31.50132" lon="-7.46442">
        <ele>1238.925</ele>
        <time>2011-04-26T15:37:19Z</time>
      </trkpt>
      <trkpt lat="31.50405" lon="-7.46372">
        <ele>1221.539</ele>
        <time>2011-04-26T15:37:36Z</time>
      </trkpt>
      <trkpt lat="31.51063" lon="-7.46835">
        <ele>1168.904</ele>
        <time>2011-04-26T15:38:17Z</time>
      </trkpt>
      <trkpt lat="31.51322" lon="-7.46902">
        <ele>1149.601</ele>
        <time>2011-04-26T15:38:34Z</time>
      </trkpt>
      <trkpt lat="31.51318" lon="-7.46977">
        <ele>1142.243</ele>
        <time>2011-04-26T15:38:41Z</time>
      </trkpt>
      <trkpt lat="31.51123" lon="-7.47039">
        <ele>1129.087</ele>
        <time>2011-04-26T15:38:55Z</time>
      </trkpt>
      <trkpt lat="31.51134" lon="-7.47154">
        <ele>1127.11</ele>
        <time>2011-04-26T15:39:03Z</time>
      </trkpt>
      <trkpt lat="31.51322" lon="-7.47262">
        <ele>1118.816</ele>
        <time>2011-04-26T15:39:15Z</time>
      </trkpt>
      <trkpt lat="31.51665" lon="-7.47227">
        <ele>1104.03</ele>
        <time>2011-04-26T15:39:35Z</time>
      </trkpt>
      <trkpt lat="31.52364" lon="-7.47348">
        <ele>1068.387</ele>
        <time>2011-04-26T15:40:14Z</time>
      </trkpt>
      <trkpt lat="31.52824" lon="-7.48037">
        <ele>1034.955</ele>
        <time>2011-04-26T15:40:55Z</time>
      </trkpt>
      <trkpt lat="31.53037" lon="-7.48518">
        <ele>1007.277</ele>
        <time>2011-04-26T15:41:21Z</time>
      </trkpt>
      <trkpt lat="31.53388" lon="-7.48796">
        <ele>989.881</ele>
        <time>2011-04-26T15:41:52Z</time>
      </trkpt>
      <trkpt lat="31.53381" lon="-7.49131">
        <ele>982.984</ele>
        <time>2011-04-26T15:42:10Z</time>
      </trkpt>
      <trkpt lat="31.53554" lon="-7.49384">
        <ele>977.477</ele>
        <time>2011-04-26T15:42:27Z</time>
      </trkpt>
      <trkpt lat="31.53685" lon="-7.49771">
        <ele>960.828</ele>
        <time>2011-04-26T15:42:49Z</time>
      </trkpt>
      <trkpt lat="31.53669" lon="-7.50257">
        <ele>953.66</ele>
        <time>2011-04-26T15:43:17Z</time>
      </trkpt>
      <trkpt lat="31.53592" lon="-7.50368">
        <ele>952.607</ele>
        <time>2011-04-26T15:43:24Z</time>
      </trkpt>
      <trkpt lat="31.53542" lon="-7.50484">
        <ele>948.273</ele>
        <time>2011-04-26T15:43:31Z</time>
      </trkpt>
      <trkpt lat="31.5364" lon="-7.5099">
        <ele>938.903</ele>
        <time>2011-04-26T15:43:59Z</time>
      </trkpt>
      <trkpt lat="31.53884" lon="-7.51365">
        <ele>953.751</ele>
        <time>2011-04-26T15:44:22Z</time>
      </trkpt>
      <trkpt lat="31.5406" lon="-7.51828">
        <ele>954.46</ele>
        <time>2011-04-26T15:44:51Z</time>
      </trkpt>
      <trkpt lat="31.54289" lon="-7.53199">
        <ele>986.72</ele>
        <time>2011-04-26T15:46:01Z</time>
      </trkpt>
      <trkpt lat="31.54319" lon="-7.53378">
        <ele>985.374</ele>
        <time>2011-04-26T15:46:06Z</time>
      </trkpt>
      <trkpt lat="31.54445" lon="-7.5552">
        <ele>905.879</ele>
        <time>2011-04-26T15:47:31Z</time>
      </trkpt>
      <trkpt lat="31.54792" lon="-7.56369">
        <ele>870.631</ele>
        <time>2011-04-26T15:48:07Z</time>
      </trkpt>
      <trkpt lat="31.54576" lon="-7.56696">
        <ele>845.632</ele>
        <time>2011-04-26T15:48:27Z</time>
      </trkpt>
      <trkpt lat="31.54556" lon="-7.57145">
        <ele>841.807</ele>
        <time>2011-04-26T15:48:46Z</time>
      </trkpt>
      <trkpt lat="31.54946" lon="-7.57728">
        <ele>842.208</ele>
        <time>2011-04-26T15:49:18Z</time>
      </trkpt>
      <trkpt lat="31.55047" lon="-7.58124">
        <ele>841.948</ele>
        <time>2011-04-26T15:49:34Z</time>
      </trkpt>
      <trkpt lat="31.55213" lon="-7.58705">
        <ele>834.384</ele>
        <time>2011-04-26T15:49:59Z</time>
      </trkpt>
      <trkpt lat="31.55075" lon="-7.59422">
        <ele>815.346</ele>
        <time>2011-04-26T15:50:27Z</time>
      </trkpt>
      <trkpt lat="31.54872" lon="-7.59683">
        <ele>803.328</ele>
        <time>2011-04-26T15:50:44Z</time>
      </trkpt>
      <trkpt lat="31.54814" lon="-7.61081">
        <ele>789.595</ele>
        <time>2011-04-26T15:51:53Z</time>
      </trkpt>
      <trkpt lat="31.54626" lon="-7.61687">
        <ele>780.585</ele>
        <time>2011-04-26T15:52:26Z</time>
      </trkpt>
      <trkpt lat="31.54466" lon="-7.61871">
        <ele>779.103</ele>
        <time>2011-04-26T15:52:42Z</time>
      </trkpt>
      <trkpt lat="31.54312" lon="-7.6209">
        <ele>773.04</ele>
        <time>2011-04-26T15:52:58Z</time>
      </trkpt>
      <trkpt lat="31.54377" lon="-7.62955">
        <ele>772.175</ele>
        <time>2011-04-26T15:53:56Z</time>
      </trkpt>
      <trkpt lat="31.54584" lon="-7.63486">
        <ele>762.328</ele>
        <time>2011-04-26T15:54:31Z</time>
      </trkpt>
      <trkpt lat="31.54846" lon="-7.63847">
        <ele>750.593</ele>
        <time>2011-04-26T15:55:00Z</time>
      </trkpt>
      <trkpt lat="31.54699" lon="-7.64621">
        <ele>733.776</ele>
        <time>2011-04-26T15:55:45Z</time>
      </trkpt>
      <trkpt lat="31.54363" lon="-7.64759">
        <ele>727.958</ele>
        <time>2011-04-26T15:56:16Z</time>
      </trkpt>
      <trkpt lat="31.54276" lon="-7.64928">
        <ele>727.316</ele>
        <time>2011-04-26T15:56:29Z</time>
      </trkpt>
      <trkpt lat="31.54277" lon="-7.64944">
        <ele>727.007</ele>
        <time>2011-04-26T15:56:30Z</time>
      </trkpt>
      <trkpt lat="31.54392" lon="-7.65469">
        <ele>725.53</ele>
        <time>2011-04-26T15:57:02Z</time>
      </trkpt>
      <trkpt lat="31.55208" lon="-7.66487">
        <ele>705.316</ele>
        <time>2011-04-26T15:58:27Z</time>
      </trkpt>
      <trkpt lat="31.55406" lon="-7.67725">
        <ele>693.697</ele>
        <time>2011-04-26T15:59:42Z</time>
      </trkpt>
      <trkpt lat="31.55457" lon="-7.68064">
        <ele>671.32</ele>
        <time>2011-04-26T16:12:57Z</time>
      </trkpt>
      <trkpt lat="31.5389" lon="-7.68894">
        <ele>669.41</ele>
        <time>2011-04-26T16:14:25Z</time>
      </trkpt>
      <trkpt lat="31.49179" lon="-7.72658">
        <ele>648</ele>
        <time>2011-04-26T16:18:31Z</time>
      </trkpt>
      <trkpt lat="31.48578" lon="-7.73401">
        <ele>667.147</ele>
        <time>2011-04-26T16:19:11Z</time>
      </trkpt>
      <trkpt lat="31.48161" lon="-7.74667">
        <ele>669.136</ele>
        <time>2011-04-26T16:19:59Z</time>
      </trkpt>
      <trkpt lat="31.47627" lon="-7.76496">
        <ele>656.467</ele>
        <time>2011-04-26T16:21:28Z</time>
      </trkpt>
      <trkpt lat="31.46674" lon="-7.76621">
        <ele>679.273</ele>
        <time>2011-04-26T16:22:26Z</time>
      </trkpt>
      <trkpt lat="31.43288" lon="-7.7659">
        <ele>764.344</ele>
        <time>2011-04-26T16:25:07Z</time>
      </trkpt>
      <trkpt lat="31.3995" lon="-7.76698">
        <ele>863.251</ele>
        <time>2011-04-26T16:27:23Z</time>
      </trkpt>
      <trkpt lat="31.38782" lon="-7.76877">
        <ele>867.541</ele>
        <time>2011-04-26T16:28:16Z</time>
      </trkpt>
      <trkpt lat="31.3841" lon="-7.76741">
        <ele>861.968</ele>
        <time>2011-04-26T16:28:40Z</time>
      </trkpt>
      <trkpt lat="31.38492" lon="-7.76964">
        <ele>869</ele>
        <time>2011-04-26T16:28:55Z</time>
      </trkpt>
      <trkpt lat="31.38388" lon="-7.7701">
        <ele>873.959</ele>
        <time>2011-04-26T16:29:01Z</time>
      </trkpt>
      <trkpt lat="31.38141" lon="-7.77136">
        <ele>874.825</ele>
        <time>2011-04-26T16:29:15Z</time>
      </trkpt>
      <trkpt lat="31.37768" lon="-7.77277">
        <ele>855.529</ele>
        <time>2011-04-26T16:29:38Z</time>
      </trkpt>
      <trkpt lat="31.37657" lon="-7.77408">
        <ele>852.079</ele>
        <time>2011-04-26T16:29:50Z</time>
      </trkpt>
      <trkpt lat="31.37565" lon="-7.77511">
        <ele>845.804</ele>
        <time>2011-04-26T16:30:00Z</time>
      </trkpt>
      <trkpt lat="31.37335" lon="-7.78465">
        <ele>841.565</ele>
        <time>2011-04-26T16:31:38Z</time>
      </trkpt>
      <trkpt lat="31.37367" lon="-7.78671">
        <ele>843.666</ele>
        <time>2011-04-26T16:31:58Z</time>
      </trkpt>
      <trkpt lat="31.37494" lon="-7.78774">
        <ele>847.7</ele>
        <time>2011-04-26T16:32:16Z</time>
      </trkpt>
      <trkpt lat="31.37522" lon="-7.78813">
        <ele>848.223</ele>
        <time>2011-04-26T16:32:23Z</time>
      </trkpt>
      <trkpt lat="31.37362" lon="-7.79092">
        <ele>848.142</ele>
        <time>2011-04-26T16:33:03Z</time>
      </trkpt>
      <trkpt lat="31.37412" lon="-7.7926">
        <ele>851.907</ele>
        <time>2011-04-26T16:33:22Z</time>
      </trkpt>
      <trkpt lat="31.37383" lon="-7.79405">
        <ele>852.052</ele>
        <time>2011-04-26T16:33:34Z</time>
      </trkpt>
      <trkpt lat="31.37263" lon="-7.79952">
        <ele>846.664</ele>
        <time>2011-04-26T16:34:20Z</time>
      </trkpt>
      <trkpt lat="31.36799" lon="-7.79513">
        <ele>882.972</ele>
        <time>2011-04-26T16:47:01Z</time>
      </trkpt>
      <trkpt lat="31.36704" lon="-7.79318">
        <ele>884.413</ele>
        <time>2011-04-26T16:47:16Z</time>
      </trkpt>
      <trkpt lat="31.3658" lon="-7.78652">
        <ele>892.016</ele>
        <time>2011-04-26T16:47:56Z</time>
      </trkpt>
      <trkpt lat="31.36618" lon="-7.78412">
        <ele>895.585</ele>
        <time>2011-04-26T16:48:10Z</time>
      </trkpt>
      <trkpt lat="31.36638" lon="-7.78289">
        <ele>894.58</ele>
        <time>2011-04-26T16:48:17Z</time>
      </trkpt>
      <trkpt lat="31.36472" lon="-7.77771">
        <ele>889.339</ele>
        <time>2011-04-26T16:48:56Z</time>
      </trkpt>
      <trkpt lat="31.35942" lon="-7.77959">
        <ele>897.386</ele>
        <time>2011-04-26T16:49:36Z</time>
      </trkpt>
      <trkpt lat="31.35931" lon="-7.7772">
        <ele>903.392</ele>
        <time>2011-04-26T16:50:01Z</time>
      </trkpt>
      <trkpt lat="31.35719" lon="-7.77765">
        <ele>904.339</ele>
        <time>2011-04-26T16:50:25Z</time>
      </trkpt>
      <trkpt lat="31.35816" lon="-7.77506">
        <ele>908.589</ele>
        <time>2011-04-26T16:50:46Z</time>
      </trkpt>
      <trkpt lat="31.35625" lon="-7.77227">
        <ele>917.143</ele>
        <time>2011-04-26T16:51:10Z</time>
      </trkpt>
      <trkpt lat="31.355" lon="-7.7678">
        <ele>908.988</ele>
        <time>2011-04-26T16:51:47Z</time>
      </trkpt>
      <trkpt lat="31.35099" lon="-7.76457">
        <ele>908.921</ele>
        <time>2011-04-26T16:52:28Z</time>
      </trkpt>
      <trkpt lat="31.35219" lon="-7.76358">
        <ele>919.093</ele>
        <time>2011-04-26T16:52:42Z</time>
      </trkpt>
      <trkpt lat="31.35254" lon="-7.76124">
        <ele>929.394</ele>
        <time>2011-04-26T16:53:01Z</time>
      </trkpt>
      <trkpt lat="31.35124" lon="-7.76051">
        <ele>934.961</ele>
        <time>2011-04-26T16:53:14Z</time>
      </trkpt>
      <trkpt lat="31.34903" lon="-7.7613">
        <ele>937.144</ele>
        <time>2011-04-26T16:53:38Z</time>
      </trkpt>
      <trkpt lat="31.34816" lon="-7.75996">
        <ele>947.146</ele>
        <time>2011-04-26T16:53:51Z</time>
      </trkpt>
      <trkpt lat="31.3476" lon="-7.75985">
        <ele>948.598</ele>
        <time>2011-04-26T16:53:55Z</time>
      </trkpt>
      <trkpt lat="31.34583" lon="-7.75916">
        <ele>938.54</ele>
        <time>2011-04-26T16:54:12Z</time>
      </trkpt>
      <trkpt lat="31.34496" lon="-7.75627">
        <ele>928.046</ele>
        <time>2011-04-26T16:54:36Z</time>
      </trkpt>
      <trkpt lat="31.34169" lon="-7.75466">
        <ele>933.658</ele>
        <time>2011-04-26T16:55:06Z</time>
      </trkpt>
      <trkpt lat="31.33797" lon="-7.757">
        <ele>957.026</ele>
        <time>2011-04-26T16:55:41Z</time>
      </trkpt>
      <trkpt lat="31.33532" lon="-7.75699">
        <ele>954.26</ele>
        <time>2011-04-26T16:56:04Z</time>
      </trkpt>
      <trkpt lat="31.33317" lon="-7.75856">
        <ele>963.67</ele>
        <time>2011-04-26T16:56:28Z</time>
      </trkpt>
      <trkpt lat="31.32385" lon="-7.75887">
        <ele>997.155</ele>
        <time>2011-04-26T16:57:50Z</time>
      </trkpt>
      <trkpt lat="31.32211" lon="-7.75581">
        <ele>1006.306</ele>
        <time>2011-04-26T16:58:17Z</time>
      </trkpt>
      <trkpt lat="31.32016" lon="-7.75482">
        <ele>1008.517</ele>
        <time>2011-04-26T16:58:41Z</time>
      </trkpt>
      <trkpt lat="31.3195" lon="-7.75364">
        <ele>1006.525</ele>
        <time>2011-04-26T16:58:53Z</time>
      </trkpt>
      <trkpt lat="31.31593" lon="-7.75255">
        <ele>1009.097</ele>
        <time>2011-04-26T16:59:25Z</time>
      </trkpt>
      <trkpt lat="31.31452" lon="-7.74827">
        <ele>1022.034</ele>
        <time>2011-04-26T16:59:59Z</time>
      </trkpt>
      <trkpt lat="31.31279" lon="-7.74588">
        <ele>1020.647</ele>
        <time>2011-04-26T17:00:20Z</time>
      </trkpt>
      <trkpt lat="31.31004" lon="-7.74462">
        <ele>1015.893</ele>
        <time>2011-04-26T17:00:49Z</time>
      </trkpt>
      <trkpt lat="31.30967" lon="-7.73996">
        <ele>1027.376</ele>
        <time>2011-04-26T17:01:34Z</time>
      </trkpt>
      <trkpt lat="31.30657" lon="-7.73728">
        <ele>1038.641</ele>
        <time>2011-04-26T17:02:17Z</time>
      </trkpt>
      <trkpt lat="31.30522" lon="-7.72989">
        <ele>1055.927</ele>
        <time>2011-04-26T17:03:18Z</time>
      </trkpt>
      <trkpt lat="31.30365" lon="-7.72728">
        <ele>1078.71</ele>
        <time>2011-04-26T17:03:47Z</time>
      </trkpt>
      <trkpt lat="31.30383" lon="-7.72314">
        <ele>1105.91</ele>
        <time>2011-04-26T17:04:16Z</time>
      </trkpt>
      <trkpt lat="31.30018" lon="-7.72175">
        <ele>1107.685</ele>
        <time>2011-04-26T17:04:55Z</time>
      </trkpt>
      <trkpt lat="31.29791" lon="-7.71828">
        <ele>1126.714</ele>
        <time>2011-04-26T17:05:32Z</time>
      </trkpt>
      <trkpt lat="31.29605" lon="-7.71786">
        <ele>1123.546</ele>
        <time>2011-04-26T17:05:51Z</time>
      </trkpt>
      <trkpt lat="31.29379" lon="-7.71467">
        <ele>1126.818</ele>
        <time>2011-04-26T17:06:28Z</time>
      </trkpt>
      <trkpt lat="31.29286" lon="-7.7127">
        <ele>1122.09</ele>
        <time>2011-04-26T17:06:52Z</time>
      </trkpt>
      <trkpt lat="31.28904" lon="-7.71155">
        <ele>1130.51</ele>
        <time>2011-04-26T17:07:38Z</time>
      </trkpt>
      <trkpt lat="31.28774" lon="-7.70865">
        <ele>1139.551</ele>
        <time>2011-04-26T17:08:13Z</time>
      </trkpt>
      <trkpt lat="31.28545" lon="-7.70652">
        <ele>1151.954</ele>
        <time>2011-04-26T17:08:41Z</time>
      </trkpt>
      <trkpt lat="31.28539" lon="-7.70642">
        <ele>1151.957</ele>
        <time>2011-04-26T17:08:42Z</time>
      </trkpt>
      <trkpt lat="31.2845" lon="-7.7035">
        <ele>1167.641</ele>
        <time>2011-04-26T17:21:45Z</time>
      </trkpt>
      <trkpt lat="31.28543" lon="-7.7065">
        <ele>1155.196</ele>
        <time>2011-04-26T17:22:21Z</time>
      </trkpt>
      <trkpt lat="31.28785" lon="-7.70877">
        <ele>1145.962</ele>
        <time>2011-04-26T17:22:52Z</time>
      </trkpt>
      <trkpt lat="31.28922" lon="-7.71175">
        <ele>1136.992</ele>
        <time>2011-04-26T17:23:26Z</time>
      </trkpt>
      <trkpt lat="31.29303" lon="-7.71279">
        <ele>1126.721</ele>
        <time>2011-04-26T17:24:11Z</time>
      </trkpt>
      <trkpt lat="31.29584" lon="-7.71764">
        <ele>1128.291</ele>
        <time>2011-04-26T17:25:40Z</time>
      </trkpt>
      <trkpt lat="31.29835" lon="-7.71897">
        <ele>1134.398</ele>
        <time>2011-04-26T17:26:10Z</time>
      </trkpt>
      <trkpt lat="31.3009" lon="-7.7221">
        <ele>1113.71</ele>
        <time>2011-04-26T17:27:01Z</time>
      </trkpt>
    </trkseg>
  </trk>
</gpx>